Observation data for Brownfield on 02/24/2021      Previous  Date  Next       Current Mesonet Observations  Soil Data  Daily Summary Page  Observations in Plain Language
KBWS 240600Z 27008KT 08/M12 A2989 RMK A01 T00791123  RH  022%=      5-min Rain = 0
KBWS 240601Z 26008KT 08/M12 A2989 RMK A01 T00781123  RH  022%=      5-min Rain = 0
KBWS 240602Z 26008KT 08/M12 A2989 RMK A01 T00781123  RH  023%=      5-min Rain = 0
KBWS 240603Z 26008KT 08/M12 A2989 RMK A01 T00761122  RH  023%=      5-min Rain = 0
KBWS 240604Z 26007KT 08/M12 A2989 RMK A01 T00751123  RH  023%=      5-min Rain = 0
KBWS 240605Z 26007KT 08/M12 A2989 RMK A01 T00751123  RH  023%=      5-min Rain = 0
KBWS 240606Z 26007KT 07/M12 A2989 RMK A01 T00731123  RH  023%=      5-min Rain = 0
KBWS 240607Z 26007KT 07/M12 A2989 RMK A01 T00711123  RH  024%=      5-min Rain = 0
KBWS 240608Z 26007KT 07/M12 A2989 RMK A01 T00691123  RH  024%=      5-min Rain = 0
KBWS 240609Z 26007KT 07/M12 A2989 RMK A01 T00671123  RH  024%=      5-min Rain = 0
KBWS 240610Z 26007KT 07/M12 A2989 RMK A01 T00651123  RH  025%=      5-min Rain = 0
KBWS 240611Z 26007KT 06/M12 A2989 RMK A01 T00641123  RH  025%=      5-min Rain = 0
KBWS 240612Z 26008KT 06/M12 A2989 RMK A01 T00631122  RH  025%=      5-min Rain = 0
KBWS 240613Z 26008KT 06/M12 A2989 RMK A01 T00631122  RH  025%=      5-min Rain = 0
KBWS 240614Z 26008KT 06/M12 A2989 RMK A01 T00641122  RH  025%=      5-min Rain = 0
KBWS 240615Z 26008KT 06/M12 A2989 RMK A01 T00641122  RH  025%=      5-min Rain = 0
KBWS 240616Z 26008KT 06/M12 A2989 RMK A01 T00641122  RH  025%=      5-min Rain = 0
KBWS 240617Z 26008KT 06/M12 A2989 RMK A01 T00631121  RH  025%=      5-min Rain = 0
KBWS 240618Z 26007KT 06/M12 A2989 RMK A01 T00631121  RH  025%=      5-min Rain = 0
KBWS 240619Z 26008KT 06/M12 A2989 RMK A01 T00641121  RH  025%=      5-min Rain = 0
KBWS 240620Z 27009KT 07/M12 A2989 RMK A01 T00661121  RH  025%=      5-min Rain = 0
KBWS 240621Z 27008KT 07/M12 A2989 RMK A01 T00701120  RH  024%=      5-min Rain = 0
KBWS 240622Z 27008KT 07/M12 A2989 RMK A01 T00711120  RH  024%=      5-min Rain = 0
KBWS 240623Z 27007KT 07/M12 A2989 RMK A01 T00721120  RH  024%=      5-min Rain = 0
KBWS 240624Z 27006KT 07/M12 A2989 RMK A01 T00721119  RH  024%=      5-min Rain = 0
KBWS 240625Z 27006KT 07/M12 A2989 RMK A01 T00701118  RH  025%=      5-min Rain = 0
KBWS 240626Z 27007KT 07/M12 A2989 RMK A01 T00681118  RH  025%=      5-min Rain = 0
KBWS 240627Z 27006KT 07/M12 A2989 RMK A01 T00671118  RH  025%=      5-min Rain = 0
KBWS 240628Z 27007KT 07/M12 A2989 RMK A01 T00671117  RH  026%=      5-min Rain = 0
KBWS 240629Z 27007KT 07/M12 A2989 RMK A01 T00671118  RH  025%=      5-min Rain = 0
KBWS 240630Z 26007KT 07/M12 A2989 RMK A01 T00691119  RH  025%=      5-min Rain = 0
KBWS 240631Z 27007KT 07/M12 A2989 RMK A01 T00701119  RH  025%=      5-min Rain = 0
KBWS 240632Z 26007KT 07/M12 A2989 RMK A01 T00711119  RH  024%=      5-min Rain = 0
KBWS 240633Z 26007KT 07/M12 A2989 RMK A01 T00691119  RH  025%=      5-min Rain = 0
KBWS 240634Z 26007KT 07/M12 A2989 RMK A01 T00681119  RH  025%=      5-min Rain = 0
KBWS 240635Z 26007KT 07/M12 A2989 RMK A01 T00671119  RH  025%=      5-min Rain = 0
KBWS 240636Z 26007KT 07/M12 A2989 RMK A01 T00651119  RH  026%=      5-min Rain = 0
KBWS 240637Z 27007KT 06/M12 A2989 RMK A01 T00631118  RH  026%=      5-min Rain = 0
KBWS 240638Z 27007KT 06/M12 A2989 RMK A01 T00631118  RH  026%=      5-min Rain = 0
KBWS 240639Z 27007KT 07/M12 A2989 RMK A01 T00651116  RH  026%=      5-min Rain = 0
KBWS 240640Z 27008KT 07/M12 A2989 RMK A01 T00661116  RH  026%=      5-min Rain = 0
KBWS 240641Z 27009KT 07/M12 A2989 RMK A01 T00681117  RH  025%=      5-min Rain = 0
KBWS 240642Z 27009KT 07/M12 A2989 RMK A01 T00711118  RH  025%=      5-min Rain = 0
KBWS 240643Z 27010KT 07/M12 A2989 RMK A01 T00731119  RH  024%=      5-min Rain = 0
KBWS 240644Z 27010KT 07/M12 A2989 RMK A01 T00741120  RH  024%=      5-min Rain = 0
KBWS 240645Z 27009KT 08/M12 A2989 RMK A01 T00751120  RH  024%=      5-min Rain = 0
KBWS 240646Z 27009KT 08/M12 A2989 RMK A01 T00771119  RH  023%=      5-min Rain = 0
KBWS 240647Z 28009KT 08/M12 A2989 RMK A01 T00781118  RH  024%=      5-min Rain = 0
KBWS 240648Z 28009KT 08/M12 A2989 RMK A01 T00761118  RH  024%=      5-min Rain = 0
KBWS 240649Z 28010KT 08/M12 A2989 RMK A01 T00751118  RH  024%=      5-min Rain = 0
KBWS 240650Z 28010KT 07/M12 A2989 RMK A01 T00741117  RH  024%=      5-min Rain = 0
KBWS 240651Z 29009KT 07/M12 A299 RMK A01 T00721117  RH  025%=      5-min Rain = 0
KBWS 240652Z 28010KT 07/M12 A2989 RMK A01 T00711117  RH  025%=      5-min Rain = 0
KBWS 240653Z 28011KT 07/M12 A2989 RMK A01 T00721117  RH  025%=      5-min Rain = 0
KBWS 240654Z 28011KT 08/M12 A2989 RMK A01 T00751118  RH  024%=      5-min Rain = 0
KBWS 240655Z 28011KT 08/M12 A2989 RMK A01 T00771118  RH  024%=      5-min Rain = 0
KBWS 240656Z 28012KT 08/M12 A299 RMK A01 T00781119  RH  023%=      5-min Rain = 0
KBWS 240657Z 28013KT 08/M12 A299 RMK A01 T00781119  RH  023%=      5-min Rain = 0
KBWS 240658Z 28013KT 08/M12 A2989 RMK A01 T00801120  RH  023%=      5-min Rain = 0
KBWS 240659Z 28013KT 08/M12 A299 RMK A01 T00831120  RH  022%=      5-min Rain = 0
KBWS 240700Z 28012KT 09/M12 A299 RMK A01 T00851120  RH  022%=      5-min Rain = 0
KBWS 240701Z 29012KT 09/M12 A299 RMK A01 T00851120  RH  022%=      5-min Rain = 0
KBWS 240702Z 29012KT 08/M12 A299 RMK A01 T00831122  RH  022%=      5-min Rain = 0
KBWS 240703Z 29013KT 08/M12 A299 RMK A01 T00801122  RH  022%=      5-min Rain = 0
KBWS 240704Z 29013KT 08/M12 A299 RMK A01 T00791122  RH  023%=      5-min Rain = 0
KBWS 240705Z 28013KT 08/M12 A299 RMK A01 T00781122  RH  023%=      5-min Rain = 0
KBWS 240706Z 28012KT 08/M12 A299 RMK A01 T00781122  RH  023%=      5-min Rain = 0
KBWS 240707Z 28012KT 08/M12 A299 RMK A01 T00771122  RH  023%=      5-min Rain = 0
KBWS 240708Z 28012KT 08/M12 A299 RMK A01 T00771122  RH  023%=      5-min Rain = 0
KBWS 240709Z 28011KT 08/M12 A299 RMK A01 T00771122  RH  023%=      5-min Rain = 0
KBWS 240710Z 28011KT 08/M12 A299 RMK A01 T00771122  RH  023%=      5-min Rain = 0
KBWS 240711Z 28012KT 08/M12 A299 RMK A01 T00781121  RH  023%=      5-min Rain = 0
KBWS 240712Z 28013KT 08/M12 A299 RMK A01 T00791121  RH  023%=      5-min Rain = 0
KBWS 240713Z 28013KT 08/M12 A299 RMK A01 T00801121  RH  023%=      5-min Rain = 0
KBWS 240714Z 28012G17KT 08/M12 A299 RMK A01 T00811122  RH  022%=      5-min Rain = 0
KBWS 240715Z 28011KT 08/M12 A299 RMK A01 T00811122  RH  022%=      5-min Rain = 0
KBWS 240716Z 28013KT 08/M12 A299 RMK A01 T00811122  RH  022%=      5-min Rain = 0
KBWS 240717Z 28012KT 08/M12 A299 RMK A01 T00811121  RH  022%=      5-min Rain = 0
KBWS 240718Z 28012KT 08/M12 A299 RMK A01 T00811121  RH  022%=      5-min Rain = 0
KBWS 240719Z 28012KT 08/M12 A299 RMK A01 T00801121  RH  023%=      5-min Rain = 0
KBWS 240720Z 28011KT 08/M12 A299 RMK A01 T00791121  RH  023%=      5-min Rain = 0
KBWS 240721Z 28011KT 08/M12 A299 RMK A01 T00781120  RH  023%=      5-min Rain = 0
KBWS 240722Z 28011KT 08/M12 A299 RMK A01 T00771120  RH  023%=      5-min Rain = 0
KBWS 240723Z 28010KT 08/M12 A299 RMK A01 T00771120  RH  023%=      5-min Rain = 0
KBWS 240724Z 28010KT 08/M12 A299 RMK A01 T00771120  RH  023%=      5-min Rain = 0
KBWS 240725Z 28010KT 08/M12 A299 RMK A01 T00751120  RH  024%=      5-min Rain = 0
KBWS 240726Z 28011KT 07/M12 A299 RMK A01 T00721120  RH  024%=      5-min Rain = 0
KBWS 240727Z 28010KT 07/M12 A299 RMK A01 T00711120  RH  024%=      5-min Rain = 0
KBWS 240728Z 28010KT 07/M12 A299 RMK A01 T00711119  RH  024%=      5-min Rain = 0
KBWS 240729Z 28010KT 07/M12 A299 RMK A01 T00711119  RH  024%=      5-min Rain = 0
KBWS 240730Z 28011KT 07/M12 A299 RMK A01 T00721119  RH  024%=      5-min Rain = 0
KBWS 240731Z 28010KT 07/M12 A299 RMK A01 T00731119  RH  024%=      5-min Rain = 0
KBWS 240732Z 28009KT 07/M12 A299 RMK A01 T00731119  RH  024%=      5-min Rain = 0
KBWS 240733Z 28010KT 07/M12 A299 RMK A01 T00731119  RH  024%=      5-min Rain = 0
KBWS 240734Z 28011KT 07/M12 A299 RMK A01 T00731118  RH  024%=      5-min Rain = 0
KBWS 240735Z 28011KT 07/M12 A299 RMK A01 T00731119  RH  024%=      5-min Rain = 0
KBWS 240736Z 28010KT 07/M12 A299 RMK A01 T00731119  RH  024%=      5-min Rain = 0
KBWS 240737Z 28010KT 07/M12 A299 RMK A01 T00731119  RH  024%=      5-min Rain = 0
KBWS 240738Z 28010KT 07/M12 A2991 RMK A01 T00721119  RH  024%=      5-min Rain = 0
KBWS 240739Z 28010KT 07/M12 A2991 RMK A01 T00731118  RH  024%=      5-min Rain = 0
KBWS 240740Z 28011KT 07/M12 A299 RMK A01 T00731118  RH  024%=      5-min Rain = 0
KBWS 240741Z 28011G16KT 07/M12 A2991 RMK A01 T00731118  RH  024%=      5-min Rain = 0
KBWS 240742Z 28010KT 07/M12 A2991 RMK A01 T00741118  RH  024%=      5-min Rain = 0
KBWS 240743Z 28010KT 07/M12 A2991 RMK A01 T00731118  RH  024%=      5-min Rain = 0
KBWS 240744Z 28011KT 07/M12 A2991 RMK A01 T00721117  RH  025%=      5-min Rain = 0
KBWS 240745Z 28011KT 07/M12 A2991 RMK A01 T00721117  RH  025%=      5-min Rain = 0
KBWS 240746Z 28010KT 07/M12 A2991 RMK A01 T00711117  RH  025%=      5-min Rain = 0
KBWS 240747Z 28011KT 07/M12 A2991 RMK A01 T00711117  RH  025%=      5-min Rain = 0
KBWS 240748Z 28011KT 07/M12 A2991 RMK A01 T00711117  RH  025%=      5-min Rain = 0
KBWS 240749Z 28011KT 07/M12 A2991 RMK A01 T00711117  RH  025%=      5-min Rain = 0
KBWS 240750Z 28011KT 07/M12 A2991 RMK A01 T00721117  RH  025%=      5-min Rain = 0
KBWS 240751Z 28011KT 07/M12 A2991 RMK A01 T00731117  RH  024%=      5-min Rain = 0
KBWS 240752Z 28011KT 07/M12 A2991 RMK A01 T00731117  RH  024%=      5-min Rain = 0
KBWS 240753Z 29011KT 07/M12 A2991 RMK A01 T00731117  RH  024%=      5-min Rain = 0
KBWS 240754Z 29010KT 07/M12 A2991 RMK A01 T00731118  RH  024%=      5-min Rain = 0
KBWS 240755Z 28011KT 07/M12 A2991 RMK A01 T00681120  RH  025%=      5-min Rain = 0
KBWS 240756Z 29010KT 07/M12 A2991 RMK A01 T00651120  RH  025%=      5-min Rain = 0
KBWS 240757Z 28011KT 06/M12 A2991 RMK A01 T00631119  RH  026%=      5-min Rain = 0
KBWS 240758Z 28011KT 06/M12 A2991 RMK A01 T00621119  RH  026%=      5-min Rain = 0
KBWS 240759Z 28011KT 06/M12 A2991 RMK A01 T00631118  RH  026%=      5-min Rain = 0
KBWS 240800Z 28012KT 06/M12 A2991 RMK A01 T00641118  RH  026%=      5-min Rain = 0
KBWS 240801Z 28011KT 07/M12 A2991 RMK A01 T00661117  RH  026%=      5-min Rain = 0
KBWS 240802Z 28012KT 07/M12 A2991 RMK A01 T00671118  RH  025%=      5-min Rain = 0
KBWS 240803Z 28011KT 07/M12 A2991 RMK A01 T00681118  RH  025%=      5-min Rain = 0
KBWS 240804Z 28011KT 07/M12 A2991 RMK A01 T00691118  RH  025%=      5-min Rain = 0
KBWS 240805Z 28011KT 07/M12 A2991 RMK A01 T00691119  RH  025%=      5-min Rain = 0
KBWS 240806Z 28011KT 07/M12 A2991 RMK A01 T00691119  RH  025%=      5-min Rain = 0
KBWS 240807Z 28011KT 07/M12 A2991 RMK A01 T00691118  RH  025%=      5-min Rain = 0
KBWS 240808Z 28011KT 07/M12 A2991 RMK A01 T00701118  RH  025%=      5-min Rain = 0
KBWS 240809Z 27010KT 07/M12 A2991 RMK A01 T00701118  RH  025%=      5-min Rain = 0
KBWS 240810Z 28011KT 07/M12 A2991 RMK A01 T00711118  RH  025%=      5-min Rain = 0
KBWS 240811Z 27011KT 07/M12 A2991 RMK A01 T00711118  RH  025%=      5-min Rain = 0
KBWS 240812Z 27010KT 07/M12 A2991 RMK A01 T00711118  RH  025%=      5-min Rain = 0
KBWS 240813Z 27010KT 07/M12 A2991 RMK A01 T00701118  RH  025%=      5-min Rain = 0
KBWS 240814Z 27011KT 07/M12 A2991 RMK A01 T00711118  RH  025%=      5-min Rain = 0
KBWS 240815Z 27010KT 07/M12 A2991 RMK A01 T00711118  RH  025%=      5-min Rain = 0
KBWS 240816Z 27009KT 07/M12 A2991 RMK A01 T00701117  RH  025%=      5-min Rain = 0
KBWS 240817Z 27009KT 07/M12 A2992 RMK A01 T00681117  RH  025%=      5-min Rain = 0
KBWS 240818Z 28010KT 07/M12 A2992 RMK A01 T00661116  RH  026%=      5-min Rain = 0
KBWS 240819Z 28009KT 07/M12 A2992 RMK A01 T00661116  RH  026%=      5-min Rain = 0
KBWS 240820Z 28010KT 07/M12 A2992 RMK A01 T00661115  RH  026%=      5-min Rain = 0
KBWS 240821Z 28010KT 07/M12 A2992 RMK A01 T00661115  RH  026%=      5-min Rain = 0
KBWS 240822Z 29010KT 07/M12 A2992 RMK A01 T00661116  RH  026%=      5-min Rain = 0
KBWS 240823Z 29010KT 07/M12 A2992 RMK A01 T00651117  RH  026%=      5-min Rain = 0
KBWS 240824Z 29011KT 06/M12 A2992 RMK A01 T00631118  RH  026%=      5-min Rain = 0
KBWS 240825Z 29010KT 06/M12 A2992 RMK A01 T00611118  RH  026%=      5-min Rain = 0
KBWS 240826Z 29011KT 06/M12 A2992 RMK A01 T00581118  RH  027%=      5-min Rain = 0
KBWS 240827Z 29011KT 06/M12 A2992 RMK A01 T00551119  RH  027%=      5-min Rain = 0
KBWS 240828Z 29011KT 05/M12 A2992 RMK A01 T00541119  RH  028%=      5-min Rain = 0
KBWS 240829Z 29012KT 05/M12 A2992 RMK A01 T00521118  RH  028%=      5-min Rain = 0
KBWS 240830Z 29011KT 05/M12 A2992 RMK A01 T00521118  RH  028%=      5-min Rain = 0
KBWS 240831Z 29011KT 05/M12 A2992 RMK A01 T00511118  RH  028%=      5-min Rain = 0
KBWS 240832Z 29011KT 05/M12 A2992 RMK A01 T00501117  RH  029%=      5-min Rain = 0
KBWS 240833Z 29011KT 05/M12 A2992 RMK A01 T00491117  RH  029%=      5-min Rain = 0
KBWS 240834Z 29011KT 05/M12 A2992 RMK A01 T00481117  RH  029%=      5-min Rain = 0
KBWS 240835Z 29011KT 05/M12 A2992 RMK A01 T00481117  RH  029%=      5-min Rain = 0
KBWS 240836Z 29010KT 05/M12 A2992 RMK A01 T00481116  RH  029%=      5-min Rain = 0
KBWS 240837Z 29011KT 05/M12 A2992 RMK A01 T00481116  RH  029%=      5-min Rain = 0
KBWS 240838Z 29011KT 05/M12 A2992 RMK A01 T00481116  RH  029%=      5-min Rain = 0
KBWS 240839Z 29010KT 05/M12 A2992 RMK A01 T00481116  RH  029%=      5-min Rain = 0
KBWS 240840Z 29010KT 05/M12 A2992 RMK A01 T00481115  RH  030%=      5-min Rain = 0
KBWS 240841Z 30009KT 05/M12 A2992 RMK A01 T00491115  RH  030%=      5-min Rain = 0
KBWS 240842Z 30010KT 05/M11 A2992 RMK A01 T00491114  RH  030%=      5-min Rain = 0
KBWS 240843Z 29010KT 05/M11 A2992 RMK A01 T00501113  RH  030%=      5-min Rain = 0
KBWS 240844Z 29010KT 05/M11 A2992 RMK A01 T00501113  RH  030%=      5-min Rain = 0
KBWS 240845Z 29010KT 05/M11 A2992 RMK A01 T00491112  RH  030%=      5-min Rain = 0
KBWS 240846Z 28011KT 05/M11 A2992 RMK A01 T00481112  RH  030%=      5-min Rain = 0
KBWS 240847Z 27009KT 05/M11 A2993 RMK A01 T00471112  RH  030%=      5-min Rain = 0
KBWS 240848Z 27010KT 05/M11 A2993 RMK A01 T00471112  RH  031%=      5-min Rain = 0
KBWS 240849Z 27010KT 05/M11 A2993 RMK A01 T00491113  RH  030%=      5-min Rain = 0
KBWS 240850Z 27010KT 05/M11 A2993 RMK A01 T00531114  RH  029%=      5-min Rain = 0
KBWS 240851Z 28010KT 05/M12 A2993 RMK A01 T00541115  RH  028%=      5-min Rain = 0
KBWS 240852Z 28009KT 05/M12 A2993 RMK A01 T00521115  RH  029%=      5-min Rain = 0
KBWS 240853Z 28009KT 05/M12 A2993 RMK A01 T00501115  RH  029%=      5-min Rain = 0
KBWS 240854Z 28010KT 05/M11 A2993 RMK A01 T00481114  RH  030%=      5-min Rain = 0
KBWS 240855Z 28010KT 05/M11 A2993 RMK A01 T00481114  RH  030%=      5-min Rain = 0
KBWS 240856Z 28011KT 05/M11 A2993 RMK A01 T00491114  RH  030%=      5-min Rain = 0
KBWS 240857Z 28012KT 05/M11 A2993 RMK A01 T00501114  RH  029%=      5-min Rain = 0
KBWS 240858Z 29011KT 05/M11 A2993 RMK A01 T00511114  RH  029%=      5-min Rain = 0
KBWS 240859Z 29011KT 05/M11 A2993 RMK A01 T00521114  RH  029%=      5-min Rain = 0
KBWS 240900Z 29010KT 05/M11 A2993 RMK A01 T00531114  RH  029%=      5-min Rain = 0
KBWS 240901Z 29010KT 05/M12 A2994 RMK A01 T00541115  RH  029%=      5-min Rain = 0
KBWS 240902Z 30011KT 05/M12 A2994 RMK A01 T00531115  RH  029%=      5-min Rain = 0
KBWS 240903Z 29012KT 05/M12 A2994 RMK A01 T00511116  RH  029%=      5-min Rain = 0
KBWS 240904Z 29012KT 05/M12 A2994 RMK A01 T00481117  RH  029%=      5-min Rain = 0
KBWS 240905Z 29012KT 05/M12 A2994 RMK A01 T00471117  RH  029%=      5-min Rain = 0
KBWS 240906Z 29011KT 05/M12 A2994 RMK A01 T00451117  RH  030%=      5-min Rain = 0
KBWS 240907Z 29011KT 04/M12 A2994 RMK A01 T00441116  RH  030%=      5-min Rain = 0
KBWS 240908Z 29011KT 04/M12 A2994 RMK A01 T00431116  RH  031%=      5-min Rain = 0
KBWS 240909Z 29012KT 04/M12 A2994 RMK A01 T00421115  RH  031%=      5-min Rain = 0
KBWS 240910Z 29011KT 04/M12 A2994 RMK A01 T00411115  RH  031%=      5-min Rain = 0
KBWS 240911Z 29011KT 04/M12 A2994 RMK A01 T00411115  RH  031%=      5-min Rain = 0
KBWS 240912Z 29011KT 04/M12 A2994 RMK A01 T00411115  RH  031%=      5-min Rain = 0
KBWS 240913Z 29011KT 04/M11 A2994 RMK A01 T00421114  RH  031%=      5-min Rain = 0
KBWS 240914Z 30010KT 04/M11 A2994 RMK A01 T00431113  RH  031%=      5-min Rain = 0
KBWS 240915Z 30011KT 04/M11 A2994 RMK A01 T00441113  RH  031%=      5-min Rain = 0
KBWS 240916Z 30010KT 04/M11 A2994 RMK A01 T00441112  RH  031%=      5-min Rain = 0
KBWS 240917Z 29010KT 04/M11 A2994 RMK A01 T00441111  RH  031%=      5-min Rain = 0
KBWS 240918Z 29010KT 04/M11 A2994 RMK A01 T00441111  RH  031%=      5-min Rain = 0
KBWS 240919Z 29010KT 04/M11 A2994 RMK A01 T00441111  RH  032%=      5-min Rain = 0
KBWS 240920Z 29011KT 04/M11 A2994 RMK A01 T00441110  RH  032%=      5-min Rain = 0
KBWS 240921Z 29011KT 04/M11 A2994 RMK A01 T00441110  RH  032%=      5-min Rain = 0
KBWS 240922Z 29010KT 04/M11 A2994 RMK A01 T00441110  RH  031%=      5-min Rain = 0
KBWS 240923Z 28010KT 05/M11 A2994 RMK A01 T00451111  RH  031%=      5-min Rain = 0
KBWS 240924Z 28009KT 05/M11 A2994 RMK A01 T00451111  RH  031%=      5-min Rain = 0
KBWS 240925Z 28009KT 04/M11 A2994 RMK A01 T00441110  RH  032%=      5-min Rain = 0
KBWS 240926Z 28010KT 04/M11 A2994 RMK A01 T00431110  RH  032%=      5-min Rain = 0
KBWS 240927Z 29010KT 04/M11 A2994 RMK A01 T00431110  RH  032%=      5-min Rain = 0
KBWS 240928Z 30011KT 04/M11 A2995 RMK A01 T00441110  RH  032%=      5-min Rain = 0
KBWS 240929Z 32012KT 04/M11 A2996 RMK A01 T00441111  RH  032%=      5-min Rain = 0
KBWS 240930Z 35011KT 04/M11 A2996 RMK A01 T00441110  RH  032%=      5-min Rain = 0
KBWS 240931Z 33013KT 05/M11 A2997 RMK A01 T00461111  RH  031%=      5-min Rain = 0
KBWS 240932Z 34012KT 05/M11 A2997 RMK A01 T00511112  RH  030%=      5-min Rain = 0
KBWS 240933Z 33016KT 06/M11 A2997 RMK A01 T00561112  RH  029%=      5-min Rain = 0
KBWS 240934Z 33015KT 06/M11 A2997 RMK A01 T00601112  RH  028%=      5-min Rain = 0
KBWS 240935Z 33014KT 06/M11 A2997 RMK A01 T00611113  RH  027%=      5-min Rain = 0
KBWS 240936Z 33014KT 06/M11 A2997 RMK A01 T00621113  RH  027%=      5-min Rain = 0
KBWS 240937Z 33014G19KT 06/M11 A2997 RMK A01 T00631113  RH  027%=      5-min Rain = 0
KBWS 240938Z 33014KT 07/M11 A2997 RMK A01 T00651111  RH  027%=      5-min Rain = 0
KBWS 240939Z 33014KT 07/M11 A2997 RMK A01 T00681110  RH  027%=      5-min Rain = 0
KBWS 240940Z 33014KT 07/M11 A2997 RMK A01 T00701110  RH  027%=      5-min Rain = 0
KBWS 240941Z 33016KT 07/M11 A2998 RMK A01 T00711109  RH  026%=      5-min Rain = 0
KBWS 240942Z 33017KT 07/M11 A2998 RMK A01 T00721108  RH  026%=      5-min Rain = 0
KBWS 240943Z 33017KT 07/M11 A2998 RMK A01 T00731107  RH  027%=      5-min Rain = 0
KBWS 240944Z 33015KT 07/M11 A2998 RMK A01 T00731106  RH  027%=      5-min Rain = 0
KBWS 240945Z 33015KT 07/M11 A2998 RMK A01 T00731105  RH  027%=      5-min Rain = 0
KBWS 240946Z 34015KT 07/M10 A2998 RMK A01 T00721103  RH  027%=      5-min Rain = 0
KBWS 240947Z 34013G18KT 07/M10 A2998 RMK A01 T00721102  RH  028%=      5-min Rain = 0
KBWS 240948Z 34013G21KT 07/M10 A2998 RMK A01 T00721100  RH  028%=      5-min Rain = 0
KBWS 240949Z 34014KT 07/M10 A2998 RMK A01 T00711097  RH  029%=      5-min Rain = 0
KBWS 240950Z 34014G19KT 07/M09 A2998 RMK A01 T00711094  RH  030%=      5-min Rain = 0
KBWS 240951Z 34014KT 07/M09 A2998 RMK A01 T00721092  RH  030%=      5-min Rain = 0
KBWS 240952Z 34013KT 07/M09 A2998 RMK A01 T00721092  RH  030%=      5-min Rain = 0
KBWS 240953Z 34014KT 07/M09 A2998 RMK A01 T00731089  RH  031%=      5-min Rain = 0
KBWS 240954Z 34015G20KT 07/M09 A2998 RMK A01 T00731088  RH  031%=      5-min Rain = 0
KBWS 240955Z 34015KT 07/M09 A2998 RMK A01 T00741085  RH  031%=      5-min Rain = 0
KBWS 240956Z 34013KT 08/M08 A2998 RMK A01 T00751084  RH  031%=      5-min Rain = 0
KBWS 240957Z 34012KT 08/M08 A2998 RMK A01 T00751084  RH  031%=      5-min Rain = 0
KBWS 240958Z 34014KT 07/M08 A2998 RMK A01 T00741083  RH  032%=      5-min Rain = 0
KBWS 240959Z 34012KT 07/M08 A2998 RMK A01 T00741081  RH  032%=      5-min Rain = 0
KBWS 241000Z 35015KT 07/M08 A2998 RMK A01 T00741080  RH  033%=      5-min Rain = 0
KBWS 241001Z 35016KT 07/M08 A2998 RMK A01 T00741078  RH  033%=      5-min Rain = 0
KBWS 241002Z 35015G21KT 08/M08 A2998 RMK A01 T00751076  RH  034%=      5-min Rain = 0
KBWS 241003Z 35015G20KT 08/M07 A2998 RMK A01 T00751074  RH  034%=      5-min Rain = 0
KBWS 241004Z 35016G23KT 08/M07 A2998 RMK A01 T00761072  RH  034%=      5-min Rain = 0
KBWS 241005Z 35017G22KT 08/M07 A2998 RMK A01 T00771070  RH  034%=      5-min Rain = 0
KBWS 241006Z 35017G22KT 08/M07 A2998 RMK A01 T00771068  RH  035%=      5-min Rain = 0
KBWS 241007Z 35017KT 08/M07 A2998 RMK A01 T00781066  RH  035%=      5-min Rain = 0
KBWS 241008Z 36018G23KT 08/M07 A2998 RMK A01 T00781065  RH  036%=      5-min Rain = 0
KBWS 241009Z 36015G22KT 08/M06 A2998 RMK A01 T00781063  RH  036%=      5-min Rain = 0
KBWS 241010Z 35019G25KT 08/M06 A2998 RMK A01 T00781061  RH  037%=      5-min Rain = 0
KBWS 241011Z 36017G23KT 08/M06 A2998 RMK A01 T00781059  RH  037%=      5-min Rain = 0
KBWS 241012Z 36018G25KT 08/M06 A2998 RMK A01 T00791059  RH  037%=      5-min Rain = 0
KBWS 241013Z 36019KT 08/M06 A2999 RMK A01 T00781058  RH  038%=      5-min Rain = 0
KBWS 241014Z 00015G21KT 08/M06 A2999 RMK A01 T00781057  RH  038%=      5-min Rain = 0
KBWS 241015Z 36014KT 08/M06 A2999 RMK A01 T00771057  RH  038%=      5-min Rain = 0
KBWS 241016Z 36016G21KT 08/M06 A2999 RMK A01 T00761057  RH  038%=      5-min Rain = 0
KBWS 241017Z 35017KT 08/M06 A2999 RMK A01 T00761057  RH  038%=      5-min Rain = 0
KBWS 241018Z 36016G21KT 08/M06 A2999 RMK A01 T00761057  RH  038%=      5-min Rain = 0
KBWS 241019Z 35015G20KT 08/M06 A2999 RMK A01 T00761058  RH  038%=      5-min Rain = 0
KBWS 241020Z 35016G21KT 08/M06 A2999 RMK A01 T00751058  RH  038%=      5-min Rain = 0
KBWS 241021Z 36017G23KT 08/M06 A2999 RMK A01 T00751057  RH  039%=      5-min Rain = 0
KBWS 241022Z 35016G21KT 07/M06 A2999 RMK A01 T00741057  RH  039%=      5-min Rain = 0
KBWS 241023Z 36016KT 07/M06 A2999 RMK A01 T00741056  RH  039%=      5-min Rain = 0
KBWS 241024Z 00017KT 07/M06 A2999 RMK A01 T00741056  RH  039%=      5-min Rain = 0
KBWS 241025Z 36017KT 07/M06 A2999 RMK A01 T00741055  RH  039%=      5-min Rain = 0
KBWS 241026Z 36018G27KT 07/M06 A2999 RMK A01 T00741055  RH  040%=      5-min Rain = 0
KBWS 241027Z 00017G22KT 07/M05 A2999 RMK A01 T00741053  RH  040%=      5-min Rain = 0
KBWS 241028Z 00018G24KT 07/M05 A2999 RMK A01 T00741053  RH  040%=      5-min Rain = 0
KBWS 241029Z 00017G24KT 07/M05 A2999 RMK A01 T00741052  RH  040%=      5-min Rain = 0
KBWS 241030Z 01019G27KT 07/M05 A2999 RMK A01 T00741052  RH  040%=      5-min Rain = 0
KBWS 241031Z 00019G25KT 07/M05 A2999 RMK A01 T00731052  RH  041%=      5-min Rain = 0
KBWS 241032Z 00018G26KT 07/M05 A2999 RMK A01 T00741051  RH  041%=      5-min Rain = 0
KBWS 241033Z 00019G25KT 07/M05 A2999 RMK A01 T00741051  RH  041%=      5-min Rain = 0
KBWS 241034Z 00019G27KT 07/M05 A2999 RMK A01 T00741050  RH  041%=      5-min Rain = 0
KBWS 241035Z 00020G26KT 07/M05 A2999 RMK A01 T00741049  RH  041%=      5-min Rain = 0
KBWS 241036Z 00019KT 07/M05 A30 RMK A01 T00741049  RH  041%=      5-min Rain = 0
KBWS 241037Z 00019G25KT 07/M05 A30 RMK A01 T00741049  RH  041%=      5-min Rain = 0
KBWS 241038Z 01017G22KT 07/M05 A30 RMK A01 T00741049  RH  041%=      5-min Rain = 0
KBWS 241039Z 00016G21KT 07/M05 A30 RMK A01 T00731049  RH  041%=      5-min Rain = 0
KBWS 241040Z 01020G27KT 07/M05 A30 RMK A01 T00731049  RH  042%=      5-min Rain = 0
KBWS 241041Z 01018KT 07/M05 A30 RMK A01 T00731049  RH  042%=      5-min Rain = 0
KBWS 241042Z 01017G22KT 07/M05 A30 RMK A01 T00731049  RH  042%=      5-min Rain = 0
KBWS 241043Z 01016KT 07/M05 A30 RMK A01 T00721049  RH  042%=      5-min Rain = 0
KBWS 241044Z 01018G23KT 07/M05 A30 RMK A01 T00711049  RH  042%=      5-min Rain = 0
KBWS 241045Z 01019G25KT 07/M05 A30 RMK A01 T00711048  RH  042%=      5-min Rain = 0
KBWS 241046Z 01018G24KT 07/M05 A30 RMK A01 T00721048  RH  042%=      5-min Rain = 0
KBWS 241047Z 01019G26KT 07/M05 A30 RMK A01 T00721048  RH  042%=      5-min Rain = 0
KBWS 241048Z 01019G25KT 07/M05 A30 RMK A01 T00711048  RH  042%=      5-min Rain = 0
KBWS 241049Z 01019KT 07/M05 A30 RMK A01 T00711048  RH  042%=      5-min Rain = 0
KBWS 241050Z 01019G24KT 07/M05 A30 RMK A01 T00711048  RH  042%=      5-min Rain = 0
KBWS 241051Z 01016G21KT 07/M05 A30 RMK A01 T00711048  RH  043%=      5-min Rain = 0
KBWS 241052Z 01017G22KT 07/M05 A30 RMK A01 T00711048  RH  043%=      5-min Rain = 0
KBWS 241053Z 01017G24KT 07/M05 A3001 RMK A01 T00701047  RH  043%=      5-min Rain = 0
KBWS 241054Z 01018KT 07/M05 A3001 RMK A01 T00701047  RH  043%=      5-min Rain = 0
KBWS 241055Z 00016KT 07/M05 A3001 RMK A01 T00701047  RH  043%=      5-min Rain = 0
KBWS 241056Z 01018G23KT 07/M05 A3001 RMK A01 T00701047  RH  043%=      5-min Rain = 0
KBWS 241057Z 01018G23KT 07/M05 A3001 RMK A01 T00701047  RH  043%=      5-min Rain = 0
KBWS 241058Z 01017G22KT 07/M05 A3001 RMK A01 T00701047  RH  043%=      5-min Rain = 0
KBWS 241059Z 01017G23KT 07/M05 A3001 RMK A01 T00701047  RH  043%=      5-min Rain = 0
KBWS 241100Z 00017KT 07/M05 A3001 RMK A01 T00691047  RH  043%=      5-min Rain = 0
KBWS 241101Z 01017G22KT 07/M05 A3001 RMK A01 T00691047  RH  043%=      5-min Rain = 0
KBWS 241102Z 00015G21KT 07/M05 A3002 RMK A01 T00681048  RH  043%=      5-min Rain = 0
KBWS 241103Z 01020G25KT 07/M05 A3001 RMK A01 T00671048  RH  044%=      5-min Rain = 0
KBWS 241104Z 01016KT 07/M05 A3002 RMK A01 T00671047  RH  044%=      5-min Rain = 0
KBWS 241105Z 01016KT 07/M05 A3002 RMK A01 T00671047  RH  044%=      5-min Rain = 0
KBWS 241106Z 00015KT 07/M05 A3002 RMK A01 T00661048  RH  044%=      5-min Rain = 0
KBWS 241107Z 00016KT 07/M05 A3002 RMK A01 T00661048  RH  044%=      5-min Rain = 0
KBWS 241108Z 00016G22KT 07/M05 A3002 RMK A01 T00661047  RH  044%=      5-min Rain = 0
KBWS 241109Z 01017G22KT 07/M05 A3002 RMK A01 T00661047  RH  044%=      5-min Rain = 0
KBWS 241110Z 01019KT 07/M05 A3002 RMK A01 T00661047  RH  044%=      5-min Rain = 0
KBWS 241111Z 00014G19KT 07/M05 A3002 RMK A01 T00661047  RH  044%=      5-min Rain = 0
KBWS 241112Z 01015G26KT 07/M05 A3002 RMK A01 T00651048  RH  044%=      5-min Rain = 0
KBWS 241113Z 01019KT 06/M05 A3002 RMK A01 T00641048  RH  045%=      5-min Rain = 0
KBWS 241114Z 01017KT 06/M05 A3002 RMK A01 T00641048  RH  045%=      5-min Rain = 0
KBWS 241115Z 01017G23KT 06/M05 A3002 RMK A01 T00641048  RH  044%=      5-min Rain = 0
KBWS 241116Z 01015G20KT 06/M05 A3002 RMK A01 T00641048  RH  045%=      5-min Rain = 0
KBWS 241117Z 01017G23KT 06/M05 A3002 RMK A01 T00631048  RH  045%=      5-min Rain = 0
KBWS 241118Z 01015KT 06/M05 A3002 RMK A01 T00631048  RH  045%=      5-min Rain = 0
KBWS 241119Z 01015KT 06/M05 A3003 RMK A01 T00631048  RH  045%=      5-min Rain = 0
KBWS 241120Z 01017KT 06/M05 A3003 RMK A01 T00631048  RH  045%=      5-min Rain = 0
KBWS 241121Z 00017KT 06/M05 A3003 RMK A01 T00621048  RH  045%=      5-min Rain = 0
KBWS 241122Z 01016G21KT 06/M05 A3003 RMK A01 T00621048  RH  045%=      5-min Rain = 0
KBWS 241123Z 01016KT 06/M05 A3003 RMK A01 T00621048  RH  045%=      5-min Rain = 0
KBWS 241124Z 01017G22KT 06/M05 A3003 RMK A01 T00631048  RH  045%=      5-min Rain = 0
KBWS 241125Z 01017G22KT 06/M05 A3003 RMK A01 T00621049  RH  045%=      5-min Rain = 0
KBWS 241126Z 00014KT 06/M05 A3003 RMK A01 T00621049  RH  045%=      5-min Rain = 0
KBWS 241127Z 01015G20KT 06/M05 A3003 RMK A01 T00611049  RH  045%=      5-min Rain = 0
KBWS 241128Z 01016KT 06/M05 A3003 RMK A01 T00611049  RH  045%=      5-min Rain = 0
KBWS 241129Z 01016KT 06/M05 A3003 RMK A01 T00611049  RH  045%=      5-min Rain = 0
KBWS 241130Z 00014KT 06/M05 A3004 RMK A01 T00611049  RH  045%=      5-min Rain = 0
KBWS 241131Z 00017G22KT 06/M05 A3004 RMK A01 T00601049  RH  045%=      5-min Rain = 0
KBWS 241132Z 00015KT 06/M05 A3004 RMK A01 T00601049  RH  045%=      5-min Rain = 0
KBWS 241133Z 00014G19KT 06/M05 A3004 RMK A01 T00601049  RH  045%=      5-min Rain = 0
KBWS 241134Z 00016KT 06/M05 A3004 RMK A01 T00601050  RH  045%=      5-min Rain = 0
KBWS 241135Z 00014G19KT 06/M05 A3004 RMK A01 T00601050  RH  045%=      5-min Rain = 0
KBWS 241136Z 00016G21KT 06/M05 A3004 RMK A01 T00601050  RH  045%=      5-min Rain = 0
KBWS 241137Z 00014G19KT 06/M05 A3004 RMK A01 T00591050  RH  045%=      5-min Rain = 0
KBWS 241138Z 00014KT 06/M05 A3004 RMK A01 T00591050  RH  046%=      5-min Rain = 0
KBWS 241139Z 00014KT 06/M05 A3004 RMK A01 T00591050  RH  046%=      5-min Rain = 0
KBWS 241140Z 00013KT 06/M05 A3004 RMK A01 T00581050  RH  046%=      5-min Rain = 0
KBWS 241141Z 00017G23KT 06/M05 A3004 RMK A01 T00581050  RH  046%=      5-min Rain = 0
KBWS 241142Z 00015KT 06/M05 A3004 RMK A01 T00571050  RH  046%=      5-min Rain = 0
KBWS 241143Z 00016G22KT 06/M05 A3004 RMK A01 T00581050  RH  046%=      5-min Rain = 0
KBWS 241144Z 00015KT 06/M05 A3004 RMK A01 T00581050  RH  046%=      5-min Rain = 0
KBWS 241145Z 01015KT 06/M05 A3004 RMK A01 T00581051  RH  046%=      5-min Rain = 0
KBWS 241146Z 01015G21KT 06/M05 A3004 RMK A01 T00571051  RH  046%=      5-min Rain = 0
KBWS 241147Z 01014KT 06/M05 A3004 RMK A01 T00571051  RH  046%=      5-min Rain = 0
KBWS 241148Z 01016KT 06/M05 A3004 RMK A01 T00561051  RH  046%=      5-min Rain = 0
KBWS 241149Z 01017G22KT 06/M05 A3004 RMK A01 T00561051  RH  046%=      5-min Rain = 0
KBWS 241150Z 01017G23KT 06/M05 A3004 RMK A01 T00561051  RH  046%=      5-min Rain = 0
KBWS 241151Z 01016KT 06/M05 A3004 RMK A01 T00571051  RH  046%=      5-min Rain = 0
KBWS 241152Z 01016G21KT 06/M05 A3005 RMK A01 T00571052  RH  046%=      5-min Rain = 0
KBWS 241153Z 00016KT 06/M05 A3005 RMK A01 T00561052  RH  046%=      5-min Rain = 0
KBWS 241154Z 00016KT 06/M05 A3005 RMK A01 T00561052  RH  046%=      5-min Rain = 0
KBWS 241155Z 01015KT 06/M05 A3005 RMK A01 T00561052  RH  046%=      5-min Rain = 0
KBWS 241156Z 00015KT 06/M05 A3005 RMK A01 T00561052  RH  046%=      5-min Rain = 0
KBWS 241157Z 01016KT 06/M05 A3005 RMK A01 T00561052  RH  046%=      5-min Rain = 0
KBWS 241158Z 00014G19KT 06/M05 A3005 RMK A01 T00561052  RH  046%=      5-min Rain = 0
KBWS 241159Z 00016G21KT 06/M05 A3005 RMK A01 T00551052  RH  046%=      5-min Rain = 0
KBWS 241200Z 01018KT 06/M05 A3005 RMK A01 T00551053  RH  046%=      5-min Rain = 0
KBWS 241201Z 01017G22KT 06/M05 A3005 RMK A01 T00561053  RH  046%=      5-min Rain = 0
KBWS 241202Z 00014KT 06/M05 A3005 RMK A01 T00561053  RH  045%=      5-min Rain = 0
KBWS 241203Z 01014G20KT 06/M05 A3005 RMK A01 T00561053  RH  045%=      5-min Rain = 0
KBWS 241204Z 01014KT 05/M05 A3005 RMK A01 T00541053  RH  046%=      5-min Rain = 0
KBWS 241205Z 00014KT 05/M05 A3005 RMK A01 T00541053  RH  046%=      5-min Rain = 0
KBWS 241206Z 01014G19KT 05/M05 A3006 RMK A01 T00541053  RH  046%=      5-min Rain = 0
KBWS 241207Z 01014G19KT 05/M05 A3006 RMK A01 T00541053  RH  046%=      5-min Rain = 0
KBWS 241208Z 00016KT 05/M05 A3006 RMK A01 T00531054  RH  046%=      5-min Rain = 0
KBWS 241209Z 00014KT 05/M05 A3006 RMK A01 T00541054  RH  046%=      5-min Rain = 0
KBWS 241210Z 01017KT 05/M05 A3006 RMK A01 T00541054  RH  046%=      5-min Rain = 0
KBWS 241211Z 01014G19KT 05/M05 A3006 RMK A01 T00531054  RH  046%=      5-min Rain = 0
KBWS 241212Z 00014KT 05/M05 A3006 RMK A01 T00531054  RH  046%=      5-min Rain = 0
KBWS 241213Z 01014KT 05/M05 A3006 RMK A01 T00531054  RH  046%=      5-min Rain = 0
KBWS 241214Z 01015KT 05/M05 A3006 RMK A01 T00531054  RH  046%=      5-min Rain = 0
KBWS 241215Z 01013KT 05/M05 A3006 RMK A01 T00531054  RH  046%=      5-min Rain = 0
KBWS 241216Z 01011KT 05/M05 A3006 RMK A01 T00531054  RH  046%=      5-min Rain = 0
KBWS 241217Z 01013KT 05/M06 A3006 RMK A01 T00521055  RH  046%=      5-min Rain = 0
KBWS 241218Z 01012KT 05/M05 A3006 RMK A01 T00521054  RH  046%=      5-min Rain = 0
KBWS 241219Z 01014KT 05/M05 A3006 RMK A01 T00521054  RH  046%=      5-min Rain = 0
KBWS 241220Z 01014G20KT 05/M06 A3006 RMK A01 T00521055  RH  046%=      5-min Rain = 0
KBWS 241221Z 01013KT 05/M06 A3006 RMK A01 T00521055  RH  046%=      5-min Rain = 0
KBWS 241222Z 01014G19KT 05/M06 A3007 RMK A01 T00521055  RH  046%=      5-min Rain = 0
KBWS 241223Z 01014KT 05/M06 A3007 RMK A01 T00521055  RH  046%=      5-min Rain = 0
KBWS 241224Z 01014KT 05/M06 A3007 RMK A01 T00521055  RH  046%=      5-min Rain = 0
KBWS 241225Z 01013G18KT 05/M06 A3007 RMK A01 T00521055  RH  046%=      5-min Rain = 0
KBWS 241226Z 01013KT 05/M06 A3007 RMK A01 T00521055  RH  046%=      5-min Rain = 0
KBWS 241227Z 01012KT 05/M06 A3007 RMK A01 T00511055  RH  046%=      5-min Rain = 0
KBWS 241228Z 01013KT 05/M06 A3007 RMK A01 T00511055  RH  046%=      5-min Rain = 0
KBWS 241229Z 01010KT 05/M06 A3007 RMK A01 T00511055  RH  046%=      5-min Rain = 0
KBWS 241230Z 01011KT 05/M06 A3007 RMK A01 T00501055  RH  047%=      5-min Rain = 0
KBWS 241231Z 01011KT 05/M06 A3007 RMK A01 T00491055  RH  047%=      5-min Rain = 0
KBWS 241232Z 01013KT 05/M06 A3007 RMK A01 T00491055  RH  047%=      5-min Rain = 0
KBWS 241233Z 00013KT 05/M06 A3008 RMK A01 T00491055  RH  047%=      5-min Rain = 0
KBWS 241234Z 00011KT 05/M06 A3008 RMK A01 T00491055  RH  047%=      5-min Rain = 0
KBWS 241235Z 00012KT 05/M06 A3008 RMK A01 T00491055  RH  047%=      5-min Rain = 0
KBWS 241236Z 00015G20KT 05/M06 A3008 RMK A01 T00491055  RH  047%=      5-min Rain = 0
KBWS 241237Z 01014KT 05/M06 A3008 RMK A01 T00491055  RH  047%=      5-min Rain = 0
KBWS 241238Z 01014KT 05/M06 A3008 RMK A01 T00501055  RH  047%=      5-min Rain = 0
KBWS 241239Z 00014KT 05/M06 A3008 RMK A01 T00491055  RH  047%=      5-min Rain = 0
KBWS 241240Z 00014KT 05/M06 A3008 RMK A01 T00491055  RH  047%=      5-min Rain = 0
KBWS 241241Z 00012KT 05/M06 A3008 RMK A01 T00491055  RH  047%=      5-min Rain = 0
KBWS 241242Z 00013KT 05/M06 A3008 RMK A01 T00481055  RH  047%=      5-min Rain = 0
KBWS 241243Z 01013KT 05/M06 A3008 RMK A01 T00481055  RH  047%=      5-min Rain = 0
KBWS 241244Z 00014KT 05/M06 A3008 RMK A01 T00471055  RH  048%=      5-min Rain = 0
KBWS 241245Z 01013KT 05/M06 A3008 RMK A01 T00471055  RH  048%=      5-min Rain = 0
KBWS 241246Z 00014KT 05/M06 A3008 RMK A01 T00471055  RH  048%=      5-min Rain = 0
KBWS 241247Z 01014KT 05/M06 A3008 RMK A01 T00471055  RH  048%=      5-min Rain = 0
KBWS 241248Z 01014KT 05/M06 A3008 RMK A01 T00461055  RH  048%=      5-min Rain = 0
KBWS 241249Z 01012G17KT 05/M06 A3008 RMK A01 T00461055  RH  048%=      5-min Rain = 0
KBWS 241250Z 01014KT 05/M06 A3008 RMK A01 T00461055  RH  048%=      5-min Rain = 0
KBWS 241251Z 02013KT 05/M06 A3008 RMK A01 T00461055  RH  048%=      5-min Rain = 0
KBWS 241252Z 02014KT 05/M06 A3008 RMK A01 T00461055  RH  048%=      5-min Rain = 0
KBWS 241253Z 01014G20KT 05/M06 A3008 RMK A01 T00461055  RH  048%=      5-min Rain = 0
KBWS 241254Z 02015G20KT 05/M06 A3008 RMK A01 T00461055  RH  048%=      5-min Rain = 0
KBWS 241255Z 02014G19KT 05/M06 A3008 RMK A01 T00461055  RH  048%=      5-min Rain = 0
KBWS 241256Z 02014KT 05/M06 A3008 RMK A01 T00461055  RH  048%=      5-min Rain = 0
KBWS 241257Z 01013KT 05/M06 A3008 RMK A01 T00451055  RH  048%=      5-min Rain = 0
KBWS 241258Z 01012G17KT 04/M06 A3008 RMK A01 T00441055  RH  048%=      5-min Rain = 0
KBWS 241259Z 01012KT 04/M06 A3008 RMK A01 T00441055  RH  049%=      5-min Rain = 0
KBWS 241300Z 01012KT 04/M06 A3008 RMK A01 T00431055  RH  049%=      5-min Rain = 0
KBWS 241301Z 01013KT 04/M06 A3008 RMK A01 T00431055  RH  049%=      5-min Rain = 0
KBWS 241302Z 01012G19KT 04/M06 A3008 RMK A01 T00431055  RH  049%=      5-min Rain = 0
KBWS 241303Z 01013KT 04/M06 A3008 RMK A01 T00431055  RH  049%=      5-min Rain = 0
KBWS 241304Z 01013KT 04/M06 A3008 RMK A01 T00431055  RH  049%=      5-min Rain = 0
KBWS 241305Z 01013KT 04/M06 A3008 RMK A01 T00431055  RH  049%=      5-min Rain = 0
KBWS 241306Z 01012KT 04/M06 A3008 RMK A01 T00431056  RH  049%=      5-min Rain = 0
KBWS 241307Z 01013KT 04/M06 A3008 RMK A01 T00421056  RH  049%=      5-min Rain = 0
KBWS 241308Z 01012KT 04/M06 A3008 RMK A01 T00421056  RH  049%=      5-min Rain = 0
KBWS 241309Z 01012KT 04/M06 A3009 RMK A01 T00411056  RH  049%=      5-min Rain = 0
KBWS 241310Z 01011G16KT 04/M06 A3009 RMK A01 T00411056  RH  049%=      5-min Rain = 0
KBWS 241311Z 01011KT 04/M06 A3009 RMK A01 T00411056  RH  049%=      5-min Rain = 0
KBWS 241312Z 01011KT 04/M06 A3009 RMK A01 T00411056  RH  049%=      5-min Rain = 0
KBWS 241313Z 01012KT 04/M06 A3009 RMK A01 T00401056  RH  049%=      5-min Rain = 0
KBWS 241314Z 01012KT 04/M06 A3009 RMK A01 T00401056  RH  050%=      5-min Rain = 0
KBWS 241315Z 01012KT 04/M06 A3009 RMK A01 T00401056  RH  050%=      5-min Rain = 0
KBWS 241316Z 00012G17KT 04/M06 A3009 RMK A01 T00401056  RH  050%=      5-min Rain = 0
KBWS 241317Z 00011KT 04/M06 A3009 RMK A01 T00401056  RH  050%=      5-min Rain = 0
KBWS 241318Z 00012KT 04/M06 A3009 RMK A01 T00401056  RH  050%=      5-min Rain = 0
KBWS 241319Z 00013KT 04/M06 A3009 RMK A01 T00401056  RH  050%=      5-min Rain = 0
KBWS 241320Z 01014KT 04/M06 A3009 RMK A01 T00401056  RH  050%=      5-min Rain = 0
KBWS 241321Z 00013KT 04/M06 A3009 RMK A01 T00401056  RH  050%=      5-min Rain = 0
KBWS 241322Z 00014KT 04/M06 A3009 RMK A01 T00401056  RH  050%=      5-min Rain = 0
KBWS 241323Z 00012KT 04/M06 A3009 RMK A01 T00401056  RH  049%=      5-min Rain = 0
KBWS 241324Z 36011KT 04/M06 A3009 RMK A01 T00411056  RH  049%=      5-min Rain = 0
KBWS 241325Z 00013KT 04/M06 A3009 RMK A01 T00411056  RH  049%=      5-min Rain = 0
KBWS 241326Z 01013G18KT 04/M06 A3009 RMK A01 T00401056  RH  049%=      5-min Rain = 0
KBWS 241327Z 01012KT 04/M06 A3009 RMK A01 T00401056  RH  049%=      5-min Rain = 0
KBWS 241328Z 00011KT 04/M06 A3009 RMK A01 T00401056  RH  050%=      5-min Rain = 0
KBWS 241329Z 00014KT 04/M06 A3009 RMK A01 T00401056  RH  050%=      5-min Rain = 0
KBWS 241330Z 00012KT 04/M06 A301 RMK A01 T00401056  RH  050%=      5-min Rain = 0
KBWS 241331Z 00014KT 04/M06 A301 RMK A01 T00401056  RH  050%=      5-min Rain = 0
KBWS 241332Z 00013KT 04/M06 A301 RMK A01 T00401056  RH  050%=      5-min Rain = 0
KBWS 241333Z 01012KT 04/M06 A301 RMK A01 T00401056  RH  050%=      5-min Rain = 0
KBWS 241334Z 00012G19KT 04/M06 A301 RMK A01 T00401056  RH  050%=      5-min Rain = 0
KBWS 241335Z 00016KT 04/M06 A301 RMK A01 T00401056  RH  050%=      5-min Rain = 0
KBWS 241336Z 00012G17KT 04/M06 A301 RMK A01 T00401056  RH  050%=      5-min Rain = 0
KBWS 241337Z 00011KT 04/M06 A301 RMK A01 T00401056  RH  049%=      5-min Rain = 0
KBWS 241338Z 00012KT 04/M06 A301 RMK A01 T00401056  RH  050%=      5-min Rain = 0
KBWS 241339Z 01013KT 04/M06 A301 RMK A01 T00401056  RH  050%=      5-min Rain = 0
KBWS 241340Z 01012KT 04/M06 A301 RMK A01 T00401055  RH  050%=      5-min Rain = 0
KBWS 241341Z 01014KT 04/M06 A301 RMK A01 T00401056  RH  050%=      5-min Rain = 0
KBWS 241342Z 01013KT 04/M06 A301 RMK A01 T00401056  RH  050%=      5-min Rain = 0
KBWS 241343Z 01013KT 04/M06 A301 RMK A01 T00401056  RH  050%=      5-min Rain = 0
KBWS 241344Z 00013KT 04/M06 A301 RMK A01 T00401056  RH  050%=      5-min Rain = 0
KBWS 241345Z 00013KT 04/M06 A301 RMK A01 T00401056  RH  050%=      5-min Rain = 0
KBWS 241346Z 01014KT 04/M06 A301 RMK A01 T00401056  RH  050%=      5-min Rain = 0
KBWS 241347Z 00013KT 04/M06 A301 RMK A01 T00401056  RH  050%=      5-min Rain = 0
KBWS 241348Z 00012KT 04/M06 A301 RMK A01 T00401056  RH  050%=      5-min Rain = 0
KBWS 241349Z 00012KT 04/M06 A301 RMK A01 T00401055  RH  050%=      5-min Rain = 0
KBWS 241350Z 00012KT 04/M06 A3011 RMK A01 T00401055  RH  050%=      5-min Rain = 0
KBWS 241351Z 36012KT 04/M06 A3011 RMK A01 T00401055  RH  050%=      5-min Rain = 0
KBWS 241352Z 36012KT 04/M06 A3011 RMK A01 T00401055  RH  050%=      5-min Rain = 0
KBWS 241353Z 36011KT 04/M06 A3011 RMK A01 T00401055  RH  050%=      5-min Rain = 0
KBWS 241354Z 35011KT 04/M06 A3011 RMK A01 T00401055  RH  050%=      5-min Rain = 0
KBWS 241355Z 35011KT 04/M06 A3011 RMK A01 T00401055  RH  050%=      5-min Rain = 0
KBWS 241356Z 35011KT 04/M06 A3011 RMK A01 T00401055  RH  050%=      5-min Rain = 0
KBWS 241357Z 35011KT 04/M06 A3011 RMK A01 T00401055  RH  050%=      5-min Rain = 0
KBWS 241358Z 36012KT 04/M06 A3011 RMK A01 T00401055  RH  050%=      5-min Rain = 0
KBWS 241359Z 35013KT 04/M06 A3011 RMK A01 T00401055  RH  050%=      5-min Rain = 0
KBWS 241400Z 36013KT 04/M06 A3011 RMK A01 T00401055  RH  050%=      5-min Rain = 0
KBWS 241401Z 35013KT 04/M06 A3011 RMK A01 T00401055  RH  050%=      5-min Rain = 0
KBWS 241402Z 36016KT 04/M06 A3011 RMK A01 T00401055  RH  050%=      5-min Rain = 0
KBWS 241403Z 35015KT 04/M06 A3011 RMK A01 T00401055  RH  050%=      5-min Rain = 0
KBWS 241404Z 36014KT 04/M06 A3012 RMK A01 T00401055  RH  050%=      5-min Rain = 0
KBWS 241405Z 36013G19KT 04/M05 A3012 RMK A01 T00401054  RH  050%=      5-min Rain = 0
KBWS 241406Z 36014G19KT 04/M05 A3012 RMK A01 T00401054  RH  050%=      5-min Rain = 0
KBWS 241407Z 36014KT 04/M05 A3012 RMK A01 T00401054  RH  050%=      5-min Rain = 0
KBWS 241408Z 35015KT 04/M05 A3012 RMK A01 T00411054  RH  050%=      5-min Rain = 0
KBWS 241409Z 35012KT 04/M05 A3012 RMK A01 T00411054  RH  050%=      5-min Rain = 0
KBWS 241410Z 35014KT 04/M05 A3012 RMK A01 T00411054  RH  050%=      5-min Rain = 0
KBWS 241411Z 35015G21KT 04/M05 A3012 RMK A01 T00411053  RH  050%=      5-min Rain = 0
KBWS 241412Z 36016KT 04/M05 A3012 RMK A01 T00411053  RH  050%=      5-min Rain = 0
KBWS 241413Z 35015KT 04/M05 A3012 RMK A01 T00411053  RH  050%=      5-min Rain = 0
KBWS 241414Z 35015KT 04/M05 A3012 RMK A01 T00411053  RH  050%=      5-min Rain = 0
KBWS 241415Z 36013KT 04/M05 A3012 RMK A01 T00411053  RH  050%=      5-min Rain = 0
KBWS 241416Z 35014G21KT 04/M05 A3012 RMK A01 T00421052  RH  050%=      5-min Rain = 0
KBWS 241417Z 36015G21KT 04/M05 A3012 RMK A01 T00421052  RH  050%=      5-min Rain = 0
KBWS 241418Z 36014KT 04/M05 A3012 RMK A01 T00421052  RH  050%=      5-min Rain = 0
KBWS 241419Z 36015G21KT 04/M05 A3012 RMK A01 T00421052  RH  050%=      5-min Rain = 0
KBWS 241420Z 36016G21KT 04/M05 A3012 RMK A01 T00431052  RH  050%=      5-min Rain = 0
KBWS 241421Z 36013KT 04/M05 A3013 RMK A01 T00431052  RH  050%=      5-min Rain = 0
KBWS 241422Z 00014G20KT 04/M05 A3013 RMK A01 T00441051  RH  050%=      5-min Rain = 0
KBWS 241423Z 36015KT 04/M05 A3013 RMK A01 T00441051  RH  050%=      5-min Rain = 0
KBWS 241424Z 00013KT 04/M05 A3013 RMK A01 T00441051  RH  050%=      5-min Rain = 0
KBWS 241425Z 01016G22KT 05/M05 A3013 RMK A01 T00451051  RH  050%=      5-min Rain = 0
KBWS 241426Z 36018KT 05/M05 A3013 RMK A01 T00451051  RH  049%=      5-min Rain = 0
KBWS 241427Z 00015KT 05/M05 A3013 RMK A01 T00461051  RH  049%=      5-min Rain = 0
KBWS 241428Z 00015G20KT 05/M05 A3013 RMK A01 T00471051  RH  049%=      5-min Rain = 0
KBWS 241429Z 01015KT 05/M05 A3013 RMK A01 T00471051  RH  049%=      5-min Rain = 0
KBWS 241430Z 00015KT 05/M05 A3013 RMK A01 T00481051  RH  049%=      5-min Rain = 0
KBWS 241431Z 01016KT 05/M05 A3013 RMK A01 T00481051  RH  049%=      5-min Rain = 0
KBWS 241432Z 00016KT 05/M05 A3013 RMK A01 T00481051  RH  049%=      5-min Rain = 0
KBWS 241433Z 00015KT 05/M05 A3013 RMK A01 T00491051  RH  049%=      5-min Rain = 0
KBWS 241434Z 01016G21KT 05/M05 A3014 RMK A01 T00491051  RH  048%=      5-min Rain = 0
KBWS 241435Z 01017G22KT 05/M05 A3014 RMK A01 T00501051  RH  048%=      5-min Rain = 0
KBWS 241436Z 01017G24KT 05/M05 A3014 RMK A01 T00501051  RH  048%=      5-min Rain = 0
KBWS 241437Z 01016G21KT 05/M05 A3014 RMK A01 T00501051  RH  048%=      5-min Rain = 0
KBWS 241438Z 01015KT 05/M05 A3014 RMK A01 T00511051  RH  048%=      5-min Rain = 0
KBWS 241439Z 01016G21KT 05/M05 A3014 RMK A01 T00511051  RH  048%=      5-min Rain = 0
KBWS 241440Z 01015KT 05/M05 A3014 RMK A01 T00521051  RH  048%=      5-min Rain = 0
KBWS 241441Z 01016G22KT 05/M05 A3014 RMK A01 T00521051  RH  047%=      5-min Rain = 0
KBWS 241442Z 01014KT 05/M05 A3014 RMK A01 T00531051  RH  047%=      5-min Rain = 0
KBWS 241443Z 00014KT 05/M05 A3014 RMK A01 T00531051  RH  047%=      5-min Rain = 0
KBWS 241444Z 01014KT 05/M05 A3015 RMK A01 T00541051  RH  047%=      5-min Rain = 0
KBWS 241445Z 01016KT 05/M05 A3015 RMK A01 T00541050  RH  047%=      5-min Rain = 0
KBWS 241446Z 01018G23KT 05/M05 A3015 RMK A01 T00541051  RH  047%=      5-min Rain = 0
KBWS 241447Z 01014G22KT 06/M05 A3015 RMK A01 T00551052  RH  046%=      5-min Rain = 0
KBWS 241448Z 00016G25KT 06/M05 A3015 RMK A01 T00551051  RH  046%=      5-min Rain = 0
KBWS 241449Z 01018G23KT 06/M05 A3015 RMK A01 T00551051  RH  046%=      5-min Rain = 0
KBWS 241450Z 00017KT 06/M05 A3015 RMK A01 T00561052  RH  046%=      5-min Rain = 0
KBWS 241451Z 01017KT 06/M05 A3016 RMK A01 T00561052  RH  046%=      5-min Rain = 0
KBWS 241452Z 01018G23KT 06/M05 A3016 RMK A01 T00551052  RH  046%=      5-min Rain = 0
KBWS 241453Z 01018KT 06/M05 A3016 RMK A01 T00551052  RH  046%=      5-min Rain = 0
KBWS 241454Z 01017KT 06/M05 A3016 RMK A01 T00551052  RH  046%=      5-min Rain = 0
KBWS 241455Z 01015KT 06/M05 A3016 RMK A01 T00561051  RH  046%=      5-min Rain = 0
KBWS 241456Z 01015KT 06/M05 A3016 RMK A01 T00561051  RH  046%=      5-min Rain = 0
KBWS 241457Z 01013G18KT 06/M05 A3016 RMK A01 T00561051  RH  046%=      5-min Rain = 0
KBWS 241458Z 01013KT 06/M05 A3017 RMK A01 T00571050  RH  046%=      5-min Rain = 0
KBWS 241459Z 02017KT 06/M05 A3016 RMK A01 T00591050  RH  046%=      5-min Rain = 0
KBWS 241500Z 01015G20KT 06/M05 A3017 RMK A01 T00591051  RH  045%=      5-min Rain = 0
KBWS 241501Z 01016KT 06/M05 A3017 RMK A01 T00581051  RH  045%=      5-min Rain = 0
KBWS 241502Z 01014KT 06/M05 A3017 RMK A01 T00581051  RH  046%=      5-min Rain = 0
KBWS 241503Z 01016KT 06/M05 A3017 RMK A01 T00591050  RH  045%=      5-min Rain = 0
KBWS 241504Z 01015KT 06/M05 A3017 RMK A01 T00591051  RH  045%=      5-min Rain = 0
KBWS 241505Z 01014KT 06/M05 A3017 RMK A01 T00591051  RH  045%=      5-min Rain = 0
KBWS 241506Z 01015KT 06/M05 A3017 RMK A01 T00591050  RH  045%=      5-min Rain = 0
KBWS 241507Z 01014G19KT 06/M05 A3017 RMK A01 T00601050  RH  045%=      5-min Rain = 0
KBWS 241508Z 02016G22KT 06/M05 A3017 RMK A01 T00611049  RH  045%=      5-min Rain = 0
KBWS 241509Z 02019KT 06/M05 A3017 RMK A01 T00621050  RH  044%=      5-min Rain = 0
KBWS 241510Z 02019G24KT 06/M05 A3017 RMK A01 T00621051  RH  044%=      5-min Rain = 0
KBWS 241511Z 02015KT 06/M05 A3017 RMK A01 T00611050  RH  045%=      5-min Rain = 0
KBWS 241512Z 01017G22KT 06/M05 A3017 RMK A01 T00631049  RH  045%=      5-min Rain = 0
KBWS 241513Z 01017G22KT 06/M05 A3017 RMK A01 T00631050  RH  044%=      5-min Rain = 0
KBWS 241514Z 01018G24KT 06/M05 A3017 RMK A01 T00621050  RH  044%=      5-min Rain = 0
KBWS 241515Z 01018KT 06/M05 A3017 RMK A01 T00621050  RH  044%=      5-min Rain = 0
KBWS 241516Z 01017G22KT 06/M05 A3017 RMK A01 T00621050  RH  045%=      5-min Rain = 0
KBWS 241517Z 02016KT 06/M05 A3017 RMK A01 T00621050  RH  045%=      5-min Rain = 0
KBWS 241518Z 02016KT 06/M05 A3017 RMK A01 T00621049  RH  045%=      5-min Rain = 0
KBWS 241519Z 02017KT 06/M05 A3017 RMK A01 T00631049  RH  045%=      5-min Rain = 0
KBWS 241520Z 02016G21KT 06/M05 A3017 RMK A01 T00631049  RH  045%=      5-min Rain = 0
KBWS 241521Z 02014G19KT 06/M05 A3017 RMK A01 T00631048  RH  045%=      5-min Rain = 0
KBWS 241522Z 02017G22KT 07/M05 A3017 RMK A01 T00651048  RH  044%=      5-min Rain = 0
KBWS 241523Z 02018KT 07/M05 A3017 RMK A01 T00651048  RH  044%=      5-min Rain = 0
KBWS 241524Z 02016KT 07/M05 A3017 RMK A01 T00651048  RH  044%=      5-min Rain = 0
KBWS 241525Z 02019KT 07/M05 A3017 RMK A01 T00661048  RH  044%=      5-min Rain = 0
KBWS 241526Z 02017G22KT 07/M05 A3017 RMK A01 T00651049  RH  044%=      5-min Rain = 0
KBWS 241527Z 02017KT 07/M05 A3017 RMK A01 T00651048  RH  044%=      5-min Rain = 0
KBWS 241528Z 01016KT 07/M05 A3017 RMK A01 T00661047  RH  044%=      5-min Rain = 0
KBWS 241529Z 01016KT 07/M05 A3017 RMK A01 T00671047  RH  044%=      5-min Rain = 0
KBWS 241530Z 01017KT 07/M05 A3017 RMK A01 T00681047  RH  044%=      5-min Rain = 0
KBWS 241531Z 02015KT 07/M05 A3018 RMK A01 T00671048  RH  044%=      5-min Rain = 0
KBWS 241532Z 02020KT 07/M05 A3017 RMK A01 T00681047  RH  044%=      5-min Rain = 0
KBWS 241533Z 02019KT 07/M05 A3017 RMK A01 T00681048  RH  044%=      5-min Rain = 0
KBWS 241534Z 02016KT 07/M05 A3017 RMK A01 T00681047  RH  044%=      5-min Rain = 0
KBWS 241535Z 01015G20KT 07/M05 A3017 RMK A01 T00691046  RH  044%=      5-min Rain = 0
KBWS 241536Z 01015KT 07/M05 A3018 RMK A01 T00701046  RH  044%=      5-min Rain = 0
KBWS 241537Z 02018KT 07/M05 A3018 RMK A01 T00701046  RH  043%=      5-min Rain = 0
KBWS 241538Z 02017KT 07/M05 A3018 RMK A01 T00691047  RH  043%=      5-min Rain = 0
KBWS 241539Z 01017KT 07/M05 A3018 RMK A01 T00691046  RH  044%=      5-min Rain = 0
KBWS 241540Z 02018KT 07/M05 A3018 RMK A01 T00681046  RH  044%=      5-min Rain = 0
KBWS 241541Z 02017G22KT 07/M05 A3018 RMK A01 T00691046  RH  044%=      5-min Rain = 0
KBWS 241542Z 03018KT 07/M05 A3018 RMK A01 T00691045  RH  044%=      5-min Rain = 0
KBWS 241543Z 02019KT 07/M05 A3018 RMK A01 T00711045  RH  043%=      5-min Rain = 0
KBWS 241544Z 02020KT 07/M05 A3018 RMK A01 T00711046  RH  043%=      5-min Rain = 0
KBWS 241545Z 02018KT 07/M05 A3018 RMK A01 T00711046  RH  043%=      5-min Rain = 0
KBWS 241546Z 02019KT 07/M05 A3018 RMK A01 T00701046  RH  043%=      5-min Rain = 0
KBWS 241547Z 03018G23KT 07/M05 A3018 RMK A01 T00691046  RH  044%=      5-min Rain = 0
KBWS 241548Z 02019KT 07/M04 A3018 RMK A01 T00701044  RH  044%=      5-min Rain = 0
KBWS 241549Z 02017KT 07/M05 A3018 RMK A01 T00711045  RH  043%=      5-min Rain = 0
KBWS 241550Z 02020KT 07/M04 A3018 RMK A01 T00711044  RH  044%=      5-min Rain = 0
KBWS 241551Z 02016KT 07/M04 A3018 RMK A01 T00721044  RH  043%=      5-min Rain = 0
KBWS 241552Z 02018G24KT 08/M04 A3018 RMK A01 T00751042  RH  043%=      5-min Rain = 0
KBWS 241553Z 02020G25KT 08/M04 A3018 RMK A01 T00751044  RH  042%=      5-min Rain = 0
KBWS 241554Z 03016KT 07/M04 A3018 RMK A01 T00741044  RH  043%=      5-min Rain = 0
KBWS 241555Z 03017G22KT 08/M04 A3018 RMK A01 T00761041  RH  043%=      5-min Rain = 0
KBWS 241556Z 03017KT 08/M04 A3018 RMK A01 T00781041  RH  042%=      5-min Rain = 0
KBWS 241557Z 02017G24KT 08/M04 A3018 RMK A01 T00781042  RH  042%=      5-min Rain = 0
KBWS 241558Z 02018KT 08/M04 A3018 RMK A01 T00781042  RH  042%=      5-min Rain = 0
KBWS 241559Z 02017G22KT 08/M04 A3018 RMK A01 T00771042  RH  042%=      5-min Rain = 0
KBWS 241600Z 03020G25KT 08/M04 A3018 RMK A01 T00771042  RH  043%=      5-min Rain = 0
KBWS 241601Z 02019KT 08/M04 A3018 RMK A01 T00781042  RH  043%=      5-min Rain = 0
KBWS 241602Z 02019KT 08/M04 A3018 RMK A01 T00781042  RH  042%=      5-min Rain = 0
KBWS 241603Z 03017KT 08/M04 A3018 RMK A01 T00781041  RH  043%=      5-min Rain = 0
KBWS 241604Z 03016G22KT 08/M04 A3018 RMK A01 T00791040  RH  043%=      5-min Rain = 0
KBWS 241605Z 02018G23KT 08/M04 A3018 RMK A01 T00811040  RH  042%=      5-min Rain = 0
KBWS 241606Z 02018KT 08/M04 A3018 RMK A01 T00791041  RH  042%=      5-min Rain = 0
KBWS 241607Z 03019G24KT 08/M04 A3018 RMK A01 T00781041  RH  043%=      5-min Rain = 0
KBWS 241608Z 03019KT 08/M04 A3018 RMK A01 T00791039  RH  043%=      5-min Rain = 0
KBWS 241609Z 02018KT 08/M04 A3018 RMK A01 T00791040  RH  042%=      5-min Rain = 0
KBWS 241610Z 02019KT 08/M04 A3018 RMK A01 T00791040  RH  043%=      5-min Rain = 0
KBWS 241611Z 02019KT 08/M04 A3018 RMK A01 T00791041  RH  043%=      5-min Rain = 0
KBWS 241612Z 03019G24KT 08/M04 A3018 RMK A01 T00791040  RH  043%=      5-min Rain = 0
KBWS 241613Z 02018G25KT 08/M04 A3018 RMK A01 T00801039  RH  043%=      5-min Rain = 0
KBWS 241614Z 02019G24KT 08/M04 A3018 RMK A01 T00811040  RH  042%=      5-min Rain = 0
KBWS 241615Z 03017KT 08/M04 A3018 RMK A01 T00811039  RH  042%=      5-min Rain = 0
KBWS 241616Z 02016KT 08/M04 A3018 RMK A01 T00821038  RH  042%=      5-min Rain = 0
KBWS 241617Z 02018KT 08/M04 A3018 RMK A01 T00831039  RH  042%=      5-min Rain = 0
KBWS 241618Z 03019KT 08/M04 A3018 RMK A01 T00821039  RH  042%=      5-min Rain = 0
KBWS 241619Z 02017KT 08/M04 A3018 RMK A01 T00821039  RH  042%=      5-min Rain = 0
KBWS 241620Z 03015KT 08/M04 A3018 RMK A01 T00811039  RH  042%=      5-min Rain = 0
KBWS 241621Z 02014KT 08/M04 A3018 RMK A01 T00821038  RH  043%=      5-min Rain = 0
KBWS 241622Z 02017KT 08/M04 A3018 RMK A01 T00841038  RH  042%=      5-min Rain = 0
KBWS 241623Z 02015G22KT 08/M04 A3018 RMK A01 T00831039  RH  042%=      5-min Rain = 0
KBWS 241624Z 02019KT 08/M04 A3018 RMK A01 T00841039  RH  042%=      5-min Rain = 0
KBWS 241625Z 03016KT 08/M04 A3018 RMK A01 T00831039  RH  042%=      5-min Rain = 0
KBWS 241626Z 02019KT 09/M04 A3018 RMK A01 T00861038  RH  041%=      5-min Rain = 0
KBWS 241627Z 03017G23KT 09/M04 A3018 RMK A01 T00861039  RH  041%=      5-min Rain = 0
KBWS 241628Z 04017KT 09/M04 A3018 RMK A01 T00861039  RH  041%=      5-min Rain = 0
KBWS 241629Z 04017KT 09/M04 A3018 RMK A01 T00861039  RH  041%=      5-min Rain = 0
KBWS 241630Z 03014KT 09/M04 A3018 RMK A01 T00851038  RH  042%=      5-min Rain = 0
KBWS 241631Z 02015G20KT 09/M04 A3018 RMK A01 T00871037  RH  041%=      5-min Rain = 0
KBWS 241632Z 02018KT 09/M04 A3018 RMK A01 T00871038  RH  041%=      5-min Rain = 0
KBWS 241633Z 03017KT 09/M04 A3018 RMK A01 T00881039  RH  041%=      5-min Rain = 0
KBWS 241634Z 02018G23KT 09/M04 A3018 RMK A01 T00871039  RH  041%=      5-min Rain = 0
KBWS 241635Z 03017G22KT 09/M04 A3018 RMK A01 T00871039  RH  041%=      5-min Rain = 0
KBWS 241636Z 04017KT 09/M04 A3018 RMK A01 T00881038  RH  041%=      5-min Rain = 0
KBWS 241637Z 04018G25KT 09/M04 A3018 RMK A01 T00871040  RH  041%=      5-min Rain = 0
KBWS 241638Z 03018KT 09/M04 A3018 RMK A01 T00871039  RH  041%=      5-min Rain = 0
KBWS 241639Z 03018G23KT 09/M04 A3018 RMK A01 T00871039  RH  041%=      5-min Rain = 0
KBWS 241640Z 02017KT 09/M04 A3018 RMK A01 T00871040  RH  041%=      5-min Rain = 0
KBWS 241641Z 03016G22KT 09/M04 A3018 RMK A01 T00871040  RH  041%=      5-min Rain = 0
KBWS 241642Z 03015KT 09/M04 A3018 RMK A01 T00881039  RH  040%=      5-min Rain = 0
KBWS 241643Z 04015KT 09/M04 A3018 RMK A01 T00891039  RH  040%=      5-min Rain = 0
KBWS 241644Z 04017KT 09/M04 A3018 RMK A01 T00891038  RH  040%=      5-min Rain = 0
KBWS 241645Z 04016G21KT 09/M04 A3018 RMK A01 T00901038  RH  040%=      5-min Rain = 0
KBWS 241646Z 03016KT 09/M04 A3018 RMK A01 T00921038  RH  040%=      5-min Rain = 0
KBWS 241647Z 04015KT 09/M04 A3018 RMK A01 T00921040  RH  039%=      5-min Rain = 0
KBWS 241648Z 03012KT 09/M04 A3018 RMK A01 T00901040  RH  040%=      5-min Rain = 0
KBWS 241649Z 03014KT 09/M04 A3018 RMK A01 T00921037  RH  040%=      5-min Rain = 0
KBWS 241650Z 03015G20KT 09/M04 A3018 RMK A01 T00941037  RH  039%=      5-min Rain = 0
KBWS 241651Z 03017KT 10/M04 A3018 RMK A01 T00951037  RH  039%=      5-min Rain = 0
KBWS 241652Z 03016KT 10/M04 A3018 RMK A01 T00951038  RH  039%=      5-min Rain = 0
KBWS 241653Z 02017KT 09/M04 A3018 RMK A01 T00941040  RH  039%=      5-min Rain = 0
KBWS 241654Z 03017G22KT 09/M04 A3018 RMK A01 T00931040  RH  039%=      5-min Rain = 0
KBWS 241655Z 03016G21KT 09/M04 A3018 RMK A01 T00931040  RH  039%=      5-min Rain = 0
KBWS 241656Z 03015G21KT 09/M04 A3018 RMK A01 T00931041  RH  039%=      5-min Rain = 0
KBWS 241657Z 02014G21KT 09/M04 A3018 RMK A01 T00931040  RH  039%=      5-min Rain = 0
KBWS 241658Z 03016KT 09/M04 A3018 RMK A01 T00931040  RH  039%=      5-min Rain = 0
KBWS 241659Z 03015KT 09/M04 A3018 RMK A01 T00921041  RH  039%=      5-min Rain = 0
KBWS 241700Z 02012KT 09/M04 A3018 RMK A01 T00921040  RH  039%=      5-min Rain = 0
KBWS 241701Z 03015G20KT 10/M04 A3018 RMK A01 T00951039  RH  039%=      5-min Rain = 0
KBWS 241702Z 04016KT 10/M04 A3018 RMK A01 T00961040  RH  038%=      5-min Rain = 0
KBWS 241703Z 03016KT 10/M04 A3018 RMK A01 T00951040  RH  038%=      5-min Rain = 0
KBWS 241704Z 03017KT 10/M04 A3018 RMK A01 T00951039  RH  039%=      5-min Rain = 0
KBWS 241705Z 02017KT 10/M04 A3018 RMK A01 T00951041  RH  038%=      5-min Rain = 0
KBWS 241706Z 02014KT 09/M04 A3018 RMK A01 T00931042  RH  038%=      5-min Rain = 0
KBWS 241707Z 03014KT 09/M04 A3018 RMK A01 T00941040  RH  039%=      5-min Rain = 0
KBWS 241708Z 02013KT 10/M04 A3018 RMK A01 T00971038  RH  038%=      5-min Rain = 0
KBWS 241709Z 04015KT 10/M04 A3018 RMK A01 T00991040  RH  037%=      5-min Rain = 0
KBWS 241710Z 03016KT 10/M04 A3018 RMK A01 T00961041  RH  038%=      5-min Rain = 0
KBWS 241711Z 04014KT 09/M04 A3018 RMK A01 T00941042  RH  038%=      5-min Rain = 0
KBWS 241712Z 04012KT 09/M04 A3018 RMK A01 T00931041  RH  038%=      5-min Rain = 0
KBWS 241713Z 03014KT 09/M04 A3018 RMK A01 T00931041  RH  039%=      5-min Rain = 0
KBWS 241714Z 04014KT 10/M04 A3018 RMK A01 T00951040  RH  038%=      5-min Rain = 0
KBWS 241715Z 04015KT 10/M04 A3018 RMK A01 T00951041  RH  038%=      5-min Rain = 0
KBWS 241716Z 03011KT 09/M04 A3018 RMK A01 T00941041  RH  038%=      5-min Rain = 0
KBWS 241717Z 04013KT 10/M04 A3018 RMK A01 T00971038  RH  039%=      5-min Rain = 0
KBWS 241718Z 03012G18KT 10/M04 A3018 RMK A01 T00981040  RH  037%=      5-min Rain = 0
KBWS 241719Z 03010KT 10/M04 A3018 RMK A01 T00971041  RH  038%=      5-min Rain = 0
KBWS 241720Z 05012KT 10/M04 A3018 RMK A01 T00981040  RH  038%=      5-min Rain = 0
KBWS 241721Z 03014KT 10/M04 A3018 RMK A01 T00991039  RH  038%=      5-min Rain = 0
KBWS 241722Z 03016KT 10/M04 A3018 RMK A01 T01001042  RH  037%=      5-min Rain = 0
KBWS 241723Z 02014KT 10/M04 A3018 RMK A01 T00981043  RH  037%=      5-min Rain = 0
KBWS 241724Z 04013KT 10/M04 A3018 RMK A01 T00981040  RH  037%=      5-min Rain = 0
KBWS 241725Z 05013G18KT 10/M04 A3018 RMK A01 T00981043  RH  037%=      5-min Rain = 0
KBWS 241726Z 03013KT 10/M04 A3018 RMK A01 T00961041  RH  038%=      5-min Rain = 0
KBWS 241727Z 03012KT 10/M04 A3018 RMK A01 T00991039  RH  038%=      5-min Rain = 0
KBWS 241728Z 04017G22KT 10/M04 A3018 RMK A01 T01011040  RH  037%=      5-min Rain = 0
KBWS 241729Z 04015KT 10/M04 A3018 RMK A01 T01021039  RH  037%=      5-min Rain = 0
KBWS 241730Z 04012KT 10/M04 A3019 RMK A01 T01021042  RH  036%=      5-min Rain = 0
KBWS 241731Z 03013KT 10/M04 A3019 RMK A01 T00991042  RH  037%=      5-min Rain = 0
KBWS 241732Z 05013KT 10/M04 A3019 RMK A01 T01001041  RH  037%=      5-min Rain = 0
KBWS 241733Z 04013KT 10/M04 A3019 RMK A01 T01011039  RH  037%=      5-min Rain = 0
KBWS 241734Z 04011KT 10/M04 A3019 RMK A01 T01021038  RH  037%=      5-min Rain = 0
KBWS 241735Z 05013G18KT 11/M04 A3019 RMK A01 T01061039  RH  036%=      5-min Rain = 0
KBWS 241736Z 05015KT 11/M04 A3019 RMK A01 T01061040  RH  036%=      5-min Rain = 0
KBWS 241737Z 05012KT 10/M04 A3019 RMK A01 T01041040  RH  036%=      5-min Rain = 0
KBWS 241738Z 05012KT 10/M04 A3019 RMK A01 T01041042  RH  036%=      5-min Rain = 0
KBWS 241739Z 04013KT 10/M04 A3019 RMK A01 T01031040  RH  036%=      5-min Rain = 0
KBWS 241740Z 04012KT 10/M04 A3018 RMK A01 T01041040  RH  036%=      5-min Rain = 0
KBWS 241741Z 05015KT 11/M04 A3018 RMK A01 T01051037  RH  037%=      5-min Rain = 0
KBWS 241742Z 04012KT 11/M04 A3018 RMK A01 T01051042  RH  035%=      5-min Rain = 0
KBWS 241743Z 04011KT 10/M04 A3018 RMK A01 T01031041  RH  036%=      5-min Rain = 0
KBWS 241744Z 06014KT 11/M04 A3018 RMK A01 T01051039  RH  036%=      5-min Rain = 0
KBWS 241745Z 06012KT 11/M04 A3018 RMK A01 T01051040  RH  036%=      5-min Rain = 0
KBWS 241746Z 06011KT 11/M04 A3018 RMK A01 T01051039  RH  036%=      5-min Rain = 0
KBWS 241747Z 05015KT 11/M04 A3018 RMK A01 T01061037  RH  036%=      5-min Rain = 0
KBWS 241748Z 05014KT 11/M04 A3018 RMK A01 T01071042  RH  035%=      5-min Rain = 0
KBWS 241749Z 05012KT 11/M04 A3018 RMK A01 T01071042  RH  035%=      5-min Rain = 0
KBWS 241750Z 06012KT 11/M04 A3018 RMK A01 T01071039  RH  036%=      5-min Rain = 0
KBWS 241751Z 07011KT 11/M04 A3018 RMK A01 T01071039  RH  035%=      5-min Rain = 0
KBWS 241752Z 04014KT 11/M04 A3018 RMK A01 T01071041  RH  035%=      5-min Rain = 0
KBWS 241753Z 04014KT 11/M04 A3018 RMK A01 T01091040  RH  035%=      5-min Rain = 0
KBWS 241754Z 04013KT 11/M04 A3018 RMK A01 T01101042  RH  034%=      5-min Rain = 0
KBWS 241755Z 05011KT 11/M04 A3018 RMK A01 T01091042  RH  034%=      5-min Rain = 0
KBWS 241756Z 06014KT 11/M04 A3018 RMK A01 T01071041  RH  035%=      5-min Rain = 0
KBWS 241757Z 04011G16KT 11/M04 A3018 RMK A01 T01081043  RH  034%=      5-min Rain = 0
KBWS 241758Z 04012KT 11/M04 A3018 RMK A01 T01091043  RH  034%=      5-min Rain = 0
KBWS 241759Z 04009KT 11/M04 A3018 RMK A01 T01101041  RH  034%=      5-min Rain = 0
KBWS 241800Z 06011KT 11/M04 A3018 RMK A01 T01111038  RH  035%=      5-min Rain = 0
KBWS 241801Z 08013KT 11/M04 A3018 RMK A01 T01141040  RH  034%=      5-min Rain = 0
KBWS 241802Z 07012KT 11/M04 A3018 RMK A01 T01141040  RH  034%=      5-min Rain = 0
KBWS 241803Z 05011KT 11/M04 A3018 RMK A01 T01141040  RH  034%=      5-min Rain = 0
KBWS 241804Z 06007KT 11/M04 A3018 RMK A01 T01111041  RH  034%=      5-min Rain = 0
KBWS 241805Z 05011KT 11/M04 A3018 RMK A01 T01141035  RH  035%=      5-min Rain = 0
KBWS 241806Z 04012KT 12/M04 A3018 RMK A01 T01181041  RH  033%=      5-min Rain = 0
KBWS 241807Z 05008KT 12/M04 A3018 RMK A01 T01151044  RH  033%=      5-min Rain = 0
KBWS 241808Z 05013KT 11/M04 A3017 RMK A01 T01141041  RH  033%=      5-min Rain = 0
KBWS 241809Z 06013KT 12/M04 A3017 RMK A01 T01181040  RH  033%=      5-min Rain = 0
KBWS 241810Z 05012KT 12/M04 A3017 RMK A01 T01181041  RH  033%=      5-min Rain = 0
KBWS 241811Z 04013KT 12/M04 A3017 RMK A01 T01171041  RH  033%=      5-min Rain = 0
KBWS 241812Z 06014KT 12/M04 A3017 RMK A01 T01181044  RH  032%=      5-min Rain = 0
KBWS 241813Z 07012KT 12/M05 A3017 RMK A01 T01171048  RH  031%=      5-min Rain = 0
KBWS 241814Z 06013KT 12/M05 A3017 RMK A01 T01171047  RH  031%=      5-min Rain = 0
KBWS 241815Z 07011KT 12/M05 A3017 RMK A01 T01171046  RH  032%=      5-min Rain = 0
KBWS 241816Z 07012KT 12/M05 A3017 RMK A01 T01171046  RH  032%=      5-min Rain = 0
KBWS 241817Z 06014KT 12/M04 A3017 RMK A01 T01171042  RH  033%=      5-min Rain = 0
KBWS 241818Z 06012G17KT 12/M04 A3017 RMK A01 T01171041  RH  033%=      5-min Rain = 0
KBWS 241819Z 05011KT 12/M04 A3017 RMK A01 T01181040  RH  033%=      5-min Rain = 0
KBWS 241820Z 05009KT 12/M05 A3017 RMK A01 T01171047  RH  032%=      5-min Rain = 0
KBWS 241821Z 04011G18KT 12/M05 A3017 RMK A01 T01161046  RH  032%=      5-min Rain = 0
KBWS 241822Z 05016KT 12/M04 A3017 RMK A01 T01181043  RH  032%=      5-min Rain = 0
KBWS 241823Z 06012KT 12/M04 A3017 RMK A01 T01181042  RH  032%=      5-min Rain = 0
KBWS 241824Z 08008G13KT 12/M04 A3017 RMK A01 T01171043  RH  032%=      5-min Rain = 0
KBWS 241825Z 08010KT 12/M04 A3017 RMK A01 T01161044  RH  032%=      5-min Rain = 0
KBWS 241826Z 04012KT 12/M04 A3017 RMK A01 T01171043  RH  032%=      5-min Rain = 0
KBWS 241827Z 04012G17KT 12/M04 A3017 RMK A01 T01201044  RH  031%=      5-min Rain = 0
KBWS 241828Z 06012KT 12/M04 A3017 RMK A01 T01221041  RH  032%=      5-min Rain = 0
KBWS 241829Z 07014KT 12/M04 A3017 RMK A01 T01241043  RH  031%=      5-min Rain = 0
KBWS 241830Z 07012KT 12/M04 A3017 RMK A01 T01241044  RH  031%=      5-min Rain = 0
KBWS 241831Z 09011KT 12/M04 A3017 RMK A01 T01241044  RH  031%=      5-min Rain = 0
KBWS 241832Z 10011KT 12/M05 A3017 RMK A01 T01231045  RH  031%=      5-min Rain = 0
KBWS 241833Z 09009KT 12/M05 A3017 RMK A01 T01221046  RH  031%=      5-min Rain = 0
KBWS 241834Z 05010KT 12/M04 A3016 RMK A01 T01211043  RH  032%=      5-min Rain = 0
KBWS 241835Z 04012KT 12/M04 A3016 RMK A01 T01211041  RH  032%=      5-min Rain = 0
KBWS 241836Z 04013KT 12/M04 A3016 RMK A01 T01221042  RH  032%=      5-min Rain = 0
KBWS 241837Z 03009KT 12/M04 A3016 RMK A01 T01211044  RH  031%=      5-min Rain = 0
KBWS 241838Z 05011G16KT 12/M04 A3016 RMK A01 T01191042  RH  032%=      5-min Rain = 0
KBWS 241839Z 06010KT 12/M04 A3016 RMK A01 T01211041  RH  032%=      5-min Rain = 0
KBWS 241840Z 05011KT 12/M04 A3016 RMK A01 T01211041  RH  032%=      5-min Rain = 0
KBWS 241841Z 07011KT 12/M04 A3016 RMK A01 T01231041  RH  032%=      5-min Rain = 0
KBWS 241842Z 07010KT 12/M04 A3016 RMK A01 T01231040  RH  032%=      5-min Rain = 0
KBWS 241843Z 06011KT 13/M04 A3016 RMK A01 T01251043  RH  031%=      5-min Rain = 0
KBWS 241844Z 08008KT 12/M05 A3016 RMK A01 T01221045  RH  031%=      5-min Rain = 0
KBWS 241845Z 07013KT 12/M04 A3016 RMK A01 T01231042  RH  031%=      5-min Rain = 0
KBWS 241846Z 06012KT 12/M05 A3016 RMK A01 T01241045  RH  030%=      5-min Rain = 0
KBWS 241847Z 07010KT 12/M04 A3016 RMK A01 T01231042  RH  031%=      5-min Rain = 0
KBWS 241848Z 07011KT 12/M04 A3016 RMK A01 T01241043  RH  031%=      5-min Rain = 0
KBWS 241849Z 07011KT 13/M04 A3016 RMK A01 T01251041  RH  031%=      5-min Rain = 0
KBWS 241850Z 07010KT 13/M04 A3016 RMK A01 T01261040  RH  031%=      5-min Rain = 0
KBWS 241851Z 05009KT 13/M04 A3016 RMK A01 T01261041  RH  031%=      5-min Rain = 0
KBWS 241852Z 05010KT 12/M04 A3016 RMK A01 T01241043  RH  031%=      5-min Rain = 0
KBWS 241853Z 04011KT 12/M04 A3016 RMK A01 T01241044  RH  031%=      5-min Rain = 0
KBWS 241854Z 05010KT 12/M04 A3016 RMK A01 T01241042  RH  031%=      5-min Rain = 0
KBWS 241855Z 07012KT 12/M04 A3016 RMK A01 T01241043  RH  031%=      5-min Rain = 0
KBWS 241856Z 07011KT 12/M04 A3016 RMK A01 T01241044  RH  031%=      5-min Rain = 0
KBWS 241857Z 06009KT 12/M04 A3016 RMK A01 T01231044  RH  031%=      5-min Rain = 0
KBWS 241858Z 07007KT 12/M04 A3016 RMK A01 T01241041  RH  031%=      5-min Rain = 0
KBWS 241859Z 07007KT 13/M04 A3016 RMK A01 T01261041  RH  031%=      5-min Rain = 0
KBWS 241900Z 05009KT 13/M04 A3016 RMK A01 T01261041  RH  031%=      5-min Rain = 0
KBWS 241901Z 03009KT 13/M04 A3016 RMK A01 T01261042  RH  031%=      5-min Rain = 0
KBWS 241902Z 06011KT 13/M04 A3016 RMK A01 T01261042  RH  031%=      5-min Rain = 0
KBWS 241903Z 08011KT 13/M04 A3016 RMK A01 T01281039  RH  031%=      5-min Rain = 0
KBWS 241904Z 07009KT 13/M04 A3016 RMK A01 T01291043  RH  030%=      5-min Rain = 0
KBWS 241905Z 08008KT 13/M04 A3016 RMK A01 T01281041  RH  031%=      5-min Rain = 0
KBWS 241906Z 09009KT 13/M04 A3016 RMK A01 T01291040  RH  031%=      5-min Rain = 0
KBWS 241907Z 08008KT 13/M04 A3015 RMK A01 T01311042  RH  030%=      5-min Rain = 0
KBWS 241908Z 07009KT 13/M04 A3015 RMK A01 T01311041  RH  030%=      5-min Rain = 0
KBWS 241909Z 05013KT 13/M04 A3015 RMK A01 T01291042  RH  030%=      5-min Rain = 0
KBWS 241910Z 07013KT 13/M04 A3015 RMK A01 T01281040  RH  031%=      5-min Rain = 0
KBWS 241911Z 07009KT 13/M04 A3015 RMK A01 T01281040  RH  031%=      5-min Rain = 0
KBWS 241912Z 06006KT 13/M04 A3015 RMK A01 T01271040  RH  031%=      5-min Rain = 0
KBWS 241913Z 06005KT 12/M04 A3015 RMK A01 T01241044  RH  031%=      5-min Rain = 0
KBWS 241914Z 09008KT 12/M04 A3015 RMK A01 T01241039  RH  032%=      5-min Rain = 0
KBWS 241915Z 08008KT 13/M04 A3015 RMK A01 T01271041  RH  031%=      5-min Rain = 0
KBWS 241916Z 07008KT 13/M04 A3015 RMK A01 T01281037  RH  031%=      5-min Rain = 0
KBWS 241917Z 08010KT 13/M04 A3015 RMK A01 T01331037  RH  031%=      5-min Rain = 0
KBWS 241918Z 06011KT 13/M04 A3015 RMK A01 T01331039  RH  030%=      5-min Rain = 0
KBWS 241919Z 07012KT 13/M04 A3014 RMK A01 T01331040  RH  030%=      5-min Rain = 0
KBWS 241920Z 06010G15KT 13/M04 A3014 RMK A01 T01321040  RH  030%=      5-min Rain = 0
KBWS 241921Z 07010KT 13/M04 A3014 RMK A01 T01311043  RH  030%=      5-min Rain = 0
KBWS 241922Z 07008KT 13/M04 A3014 RMK A01 T01271043  RH  030%=      5-min Rain = 0
KBWS 241923Z 09008KT 13/M04 A3014 RMK A01 T01291039  RH  031%=      5-min Rain = 0
KBWS 241924Z 07007KT 13/M04 A3014 RMK A01 T01331038  RH  030%=      5-min Rain = 0
KBWS 241925Z 04005G10KT 14/M04 A3014 RMK A01 T01351038  RH  030%=      5-min Rain = 0
KBWS 241926Z 06008G13KT 13/M04 A3014 RMK A01 T01341040  RH  030%=      5-min Rain = 0
KBWS 241927Z 07013KT 14/M04 A3014 RMK A01 T01351037  RH  030%=      5-min Rain = 0
KBWS 241928Z 07010KT 13/M04 A3014 RMK A01 T01341041  RH  029%=      5-min Rain = 0
KBWS 241929Z 06010KT 13/M04 A3014 RMK A01 T01321040  RH  030%=      5-min Rain = 0
KBWS 241930Z 05007KT 13/M04 A3014 RMK A01 T01321040  RH  030%=      5-min Rain = 0
KBWS 241931Z 06008KT 13/M04 A3014 RMK A01 T01321039  RH  030%=      5-min Rain = 0
KBWS 241932Z 05008KT 13/M04 A3014 RMK A01 T01331038  RH  030%=      5-min Rain = 0
KBWS 241933Z 07007KT 14/M04 A3014 RMK A01 T01361037  RH  030%=      5-min Rain = 0
KBWS 241934Z 07010G15KT 14/M04 A3013 RMK A01 T01371037  RH  030%=      5-min Rain = 0
KBWS 241935Z 06008KT 14/M04 A3013 RMK A01 T01371041  RH  029%=      5-min Rain = 0
KBWS 241936Z 06007KT 14/M04 A3013 RMK A01 T01351039  RH  030%=      5-min Rain = 0
KBWS 241937Z 06006KT 14/M04 A3013 RMK A01 T01351039  RH  030%=      5-min Rain = 0
KBWS 241938Z 06005G10KT 13/M04 A3013 RMK A01 T01341039  RH  030%=      5-min Rain = 0
KBWS 241939Z 05010KT 14/M04 A3013 RMK A01 T01351038  RH  030%=      5-min Rain = 0
KBWS 241940Z 05013KT 14/M04 A3013 RMK A01 T01381040  RH  029%=      5-min Rain = 0
KBWS 241941Z 05010KT 14/M04 A3013 RMK A01 T01371043  RH  028%=      5-min Rain = 0
KBWS 241942Z 05010KT 14/M04 A3013 RMK A01 T01371041  RH  029%=      5-min Rain = 0
KBWS 241943Z 06007KT 14/M04 A3013 RMK A01 T01371043  RH  028%=      5-min Rain = 0
KBWS 241944Z 05007KT 14/M04 A3012 RMK A01 T01351043  RH  029%=      5-min Rain = 0
KBWS 241945Z 07009KT 13/M04 A3012 RMK A01 T01341042  RH  029%=      5-min Rain = 0
KBWS 241946Z 05010KT 14/M04 A3012 RMK A01 T01351040  RH  029%=      5-min Rain = 0
KBWS 241947Z 05009KT 14/M04 A3012 RMK A01 T01371039  RH  029%=      5-min Rain = 0
KBWS 241948Z 04007KT 14/M04 A3012 RMK A01 T01371041  RH  029%=      5-min Rain = 0
KBWS 241949Z 06009KT 14/M04 A3012 RMK A01 T01371040  RH  029%=      5-min Rain = 0
KBWS 241950Z 06012KT 14/M04 A3012 RMK A01 T01391037  RH  029%=      5-min Rain = 0
KBWS 241951Z 06011KT 14/M04 A3012 RMK A01 T01421039  RH  028%=      5-min Rain = 0
KBWS 241952Z 07008KT 14/M04 A3012 RMK A01 T01401041  RH  028%=      5-min Rain = 0
KBWS 241953Z 07008KT 14/M04 A3012 RMK A01 T01391039  RH  029%=      5-min Rain = 0
KBWS 241954Z 08011KT 14/M04 A3012 RMK A01 T01401038  RH  029%=      5-min Rain = 0
KBWS 241955Z 07011KT 14/M04 A3012 RMK A01 T01421040  RH  028%=      5-min Rain = 0
KBWS 241956Z 06010KT 14/M04 A3012 RMK A01 T01411038  RH  029%=      5-min Rain = 0
KBWS 241957Z 06009KT 14/M04 A3012 RMK A01 T01391040  RH  029%=      5-min Rain = 0
KBWS 241958Z 05009KT 14/M04 A3012 RMK A01 T01391038  RH  029%=      5-min Rain = 0
KBWS 241959Z 03012KT 14/M04 A3012 RMK A01 T01411038  RH  029%=      5-min Rain = 0
KBWS 242000Z 05009KT 14/M04 A3012 RMK A01 T01421040  RH  028%=      5-min Rain = 0
KBWS 242001Z 09008G13KT 14/M04 A3012 RMK A01 T01421039  RH  028%=      5-min Rain = 0
KBWS 242002Z 08010KT 14/M04 A3012 RMK A01 T01421040  RH  028%=      5-min Rain = 0
KBWS 242003Z 08005KT 14/M04 A3012 RMK A01 T01421040  RH  028%=      5-min Rain = 0
KBWS 242004Z 08009KT 15/M04 A3012 RMK A01 T01451038  RH  028%=      5-min Rain = 0
KBWS 242005Z 08011KT 15/M04 A3011 RMK A01 T01461037  RH  028%=      5-min Rain = 0
KBWS 242006Z 07010KT 15/M04 A3011 RMK A01 T01471036  RH  028%=      5-min Rain = 0
KBWS 242007Z 06011KT 15/M04 A3011 RMK A01 T01471037  RH  028%=      5-min Rain = 0
KBWS 242008Z 06010KT 15/M04 A3011 RMK A01 T01451036  RH  028%=      5-min Rain = 0
KBWS 242009Z 06008KT 14/M04 A3011 RMK A01 T01441038  RH  028%=      5-min Rain = 0
KBWS 242010Z 05007KT 14/M04 A3012 RMK A01 T01411040  RH  028%=      5-min Rain = 0
KBWS 242011Z 03008KT 14/M04 A3011 RMK A01 T01411039  RH  029%=      5-min Rain = 0
KBWS 242012Z 05010KT 14/M04 A3011 RMK A01 T01431038  RH  028%=      5-min Rain = 0
KBWS 242013Z 05009KT 14/M04 A3012 RMK A01 T01421040  RH  028%=      5-min Rain = 0
KBWS 242014Z 05009KT 14/M04 A3012 RMK A01 T01421037  RH  029%=      5-min Rain = 0
KBWS 242015Z 06009KT 14/M04 A3012 RMK A01 T01421039  RH  028%=      5-min Rain = 0
KBWS 242016Z 04010KT 14/M04 A3011 RMK A01 T01411038  RH  029%=      5-min Rain = 0
KBWS 242017Z 06010KT 14/M04 A3011 RMK A01 T01411038  RH  029%=      5-min Rain = 0
KBWS 242018Z 05010KT 14/M04 A3011 RMK A01 T01411037  RH  029%=      5-min Rain = 0
KBWS 242019Z 05010KT 14/M04 A3011 RMK A01 T01421036  RH  029%=      5-min Rain = 0
KBWS 242020Z 06010KT 14/M04 A3011 RMK A01 T01441037  RH  029%=      5-min Rain = 0
KBWS 242021Z 06008KT 14/M04 A3011 RMK A01 T01441037  RH  028%=      5-min Rain = 0
KBWS 242022Z 06009KT 14/M04 A3011 RMK A01 T01431038  RH  028%=      5-min Rain = 0
KBWS 242023Z 04009KT 14/M04 A3011 RMK A01 T01421037  RH  029%=      5-min Rain = 0
KBWS 242024Z 05008KT 14/M04 A3011 RMK A01 T01431037  RH  029%=      5-min Rain = 0
KBWS 242025Z 06005KT 14/M04 A3011 RMK A01 T01441037  RH  028%=      5-min Rain = 0
KBWS 242026Z 06006KT 14/M04 A3011 RMK A01 T01441036  RH  029%=      5-min Rain = 0
KBWS 242027Z 06007KT 15/M04 A3011 RMK A01 T01451036  RH  029%=      5-min Rain = 0
KBWS 242028Z 07005KT 15/M03 A3011 RMK A01 T01461034  RH  029%=      5-min Rain = 0
KBWS 242029Z 11005KT 15/M04 A3011 RMK A01 T01481036  RH  028%=      5-min Rain = 0
KBWS 242030Z 12008KT 15/M04 A301 RMK A01 T01481036  RH  028%=      5-min Rain = 0
KBWS 242031Z 11007KT 15/M04 A301 RMK A01 T01491035  RH  028%=      5-min Rain = 0
KBWS 242032Z 10009KT 15/M04 A301 RMK A01 T01501039  RH  027%=      5-min Rain = 0
KBWS 242033Z 11008KT 15/M04 A301 RMK A01 T01501036  RH  028%=      5-min Rain = 0
KBWS 242034Z 12010KT 15/M03 A301 RMK A01 T01531032  RH  028%=      5-min Rain = 0
KBWS 242035Z 12010KT 15/M04 A301 RMK A01 T01541035  RH  027%=      5-min Rain = 0
KBWS 242036Z 12011KT 15/M04 A301 RMK A01 T01531038  RH  027%=      5-min Rain = 0
KBWS 242037Z 12009KT 15/M04 A301 RMK A01 T01481039  RH  027%=      5-min Rain = 0
KBWS 242038Z 10008KT 15/M04 A301 RMK A01 T01471038  RH  028%=      5-min Rain = 0
KBWS 242039Z 09009KT 15/M04 A301 RMK A01 T01461042  RH  027%=      5-min Rain = 0
KBWS 242040Z 07005KT 15/M04 A301 RMK A01 T01451043  RH  027%=      5-min Rain = 0
KBWS 242041Z 08004KT 14/M04 A301 RMK A01 T01431041  RH  028%=      5-min Rain = 0
KBWS 242042Z 10005KT 14/M04 A301 RMK A01 T01441042  RH  027%=      5-min Rain = 0
KBWS 242043Z 12005KT 14/M04 A301 RMK A01 T01441042  RH  027%=      5-min Rain = 0
KBWS 242044Z 10006KT 14/M04 A301 RMK A01 T01441041  RH  027%=      5-min Rain = 0
KBWS 242045Z 09008KT 15/M04 A301 RMK A01 T01461040  RH  027%=      5-min Rain = 0
KBWS 242046Z 09005KT 15/M04 A301 RMK A01 T01461043  RH  027%=      5-min Rain = 0
KBWS 242047Z 09004KT 15/M04 A301 RMK A01 T01471039  RH  027%=      5-min Rain = 0
KBWS 242048Z 10005KT 15/M04 A301 RMK A01 T01481040  RH  027%=      5-min Rain = 0
KBWS 242049Z 12003KT 15/M04 A3009 RMK A01 T01481043  RH  026%=      5-min Rain = 0
KBWS 242050Z 07002KT 15/M04 A3009 RMK A01 T01461041  RH  027%=      5-min Rain = 0
KBWS 242051Z 07004KT 15/M04 A3009 RMK A01 T01471040  RH  027%=      5-min Rain = 0
KBWS 242052Z 08009KT 15/M04 A3009 RMK A01 T01491035  RH  028%=      5-min Rain = 0
KBWS 242053Z 06011KT 15/M04 A3009 RMK A01 T01521036  RH  027%=      5-min Rain = 0
KBWS 242054Z 07006KT 15/M04 A3009 RMK A01 T01481041  RH  027%=      5-min Rain = 0
KBWS 242055Z 07004KT 15/M04 A3009 RMK A01 T01461041  RH  027%=      5-min Rain = 0
KBWS 242056Z 06007KT 15/M04 A3009 RMK A01 T01471038  RH  028%=      5-min Rain = 0
KBWS 242057Z 08007KT 15/M04 A3009 RMK A01 T01481037  RH  028%=      5-min Rain = 0
KBWS 242058Z 09010KT 15/M04 A3009 RMK A01 T01501036  RH  028%=      5-min Rain = 0
KBWS 242059Z 09009KT 15/M04 A3009 RMK A01 T01521038  RH  027%=      5-min Rain = 0
KBWS 242100Z 10009KT 15/M04 A3009 RMK A01 T01531039  RH  026%=      5-min Rain = 0
KBWS 242101Z 10008KT 15/M04 A3009 RMK A01 T01531039  RH  026%=      5-min Rain = 0
KBWS 242102Z 10007KT 15/M04 A3009 RMK A01 T01521040  RH  026%=      5-min Rain = 0
KBWS 242103Z 10007KT 15/M04 A3009 RMK A01 T01511039  RH  027%=      5-min Rain = 0
KBWS 242104Z 10006KT 15/M04 A3009 RMK A01 T01511041  RH  026%=      5-min Rain = 0
KBWS 242105Z 10005KT 15/M04 A3009 RMK A01 T01491040  RH  027%=      5-min Rain = 0
KBWS 242106Z 11005KT 15/M04 A3009 RMK A01 T01501038  RH  027%=      5-min Rain = 0
KBWS 242107Z 11003KT 15/M04 A3009 RMK A01 T01521041  RH  026%=      5-min Rain = 0
KBWS 242108Z 11004G10KT 15/M04 A3009 RMK A01 T01511042  RH  026%=      5-min Rain = 0
KBWS 242109Z 09008KT 15/M04 A3009 RMK A01 T01511038  RH  027%=      5-min Rain = 0
KBWS 242110Z 08007KT 15/M04 A3009 RMK A01 T01521039  RH  026%=      5-min Rain = 0
KBWS 242111Z 10004KT 15/M04 A3009 RMK A01 T01531039  RH  026%=      5-min Rain = 0
KBWS 242112Z 09004KT 15/M04 A3009 RMK A01 T01541040  RH  026%=      5-min Rain = 0
KBWS 242113Z 08006KT 15/M04 A3009 RMK A01 T01531040  RH  026%=      5-min Rain = 0
KBWS 242114Z 08007KT 15/M04 A3009 RMK A01 T01531039  RH  026%=      5-min Rain = 0
KBWS 242115Z 08006KT 15/M04 A3009 RMK A01 T01521041  RH  026%=      5-min Rain = 0
KBWS 242116Z 08005KT 15/M04 A3009 RMK A01 T01521039  RH  027%=      5-min Rain = 0
KBWS 242117Z 15005KT 15/M04 A3009 RMK A01 T01531039  RH  026%=      5-min Rain = 0
KBWS 242118Z 06004G9KT 15/M04 A3009 RMK A01 T01531037  RH  027%=      5-min Rain = 0
KBWS 242119Z 06008KT 15/M04 A3009 RMK A01 T01541037  RH  027%=      5-min Rain = 0
KBWS 242120Z 06008KT 15/M04 A3009 RMK A01 T01541039  RH  026%=      5-min Rain = 0
KBWS 242121Z 09008KT 15/M04 A3009 RMK A01 T01541039  RH  026%=      5-min Rain = 0
KBWS 242122Z 13006KT 15/M04 A3009 RMK A01 T01541039  RH  026%=      5-min Rain = 0
KBWS 242123Z 11005KT 15/M04 A3009 RMK A01 T01541039  RH  026%=      5-min Rain = 0
KBWS 242124Z 08006KT 15/M04 A3009 RMK A01 T01541037  RH  027%=      5-min Rain = 0
KBWS 242125Z 09007KT 16/M04 A3009 RMK A01 T01561036  RH  027%=      5-min Rain = 0
KBWS 242126Z 09006KT 16/M04 A3009 RMK A01 T01561039  RH  026%=      5-min Rain = 0
KBWS 242127Z 10008KT 16/M04 A3009 RMK A01 T01561036  RH  026%=      5-min Rain = 0
KBWS 242128Z 10006KT 16/M04 A3009 RMK A01 T01581037  RH  026%=      5-min Rain = 0
KBWS 242129Z 08009KT 16/M04 A3009 RMK A01 T01581036  RH  026%=      5-min Rain = 0
KBWS 242130Z 08008KT 16/M04 A3009 RMK A01 T01581038  RH  026%=      5-min Rain = 0
KBWS 242131Z 05007KT 16/M04 A3009 RMK A01 T01561038  RH  026%=      5-min Rain = 0
KBWS 242132Z 05006KT 15/M04 A3009 RMK A01 T01541040  RH  026%=      5-min Rain = 0
KBWS 242133Z 06008KT 15/M04 A3009 RMK A01 T01531038  RH  027%=      5-min Rain = 0
KBWS 242134Z 07005KT 15/M04 A3009 RMK A01 T01531040  RH  026%=      5-min Rain = 0
KBWS 242135Z 07006KT 15/M04 A3009 RMK A01 T01511039  RH  027%=      5-min Rain = 0
KBWS 242136Z 09005KT 15/M04 A3009 RMK A01 T01521038  RH  027%=      5-min Rain = 0
KBWS 242137Z 06006KT 15/M04 A3009 RMK A01 T01521038  RH  027%=      5-min Rain = 0
KBWS 242138Z 07007KT 15/M04 A3009 RMK A01 T01541037  RH  027%=      5-min Rain = 0
KBWS 242139Z 09008KT 15/M04 A3009 RMK A01 T01541040  RH  026%=      5-min Rain = 0
KBWS 242140Z 08006KT 15/M04 A3009 RMK A01 T01521041  RH  026%=      5-min Rain = 0
KBWS 242141Z 09005KT 15/M04 A3009 RMK A01 T01521038  RH  027%=      5-min Rain = 0
KBWS 242142Z 10005KT 15/M04 A3009 RMK A01 T01541037  RH  027%=      5-min Rain = 0
KBWS 242143Z 09006KT 16/M04 A3009 RMK A01 T01551037  RH  026%=      5-min Rain = 0
KBWS 242144Z 11005KT 16/M04 A3009 RMK A01 T01561035  RH  027%=      5-min Rain = 0
KBWS 242145Z 12006KT 16/M04 A3009 RMK A01 T01571038  RH  026%=      5-min Rain = 0
KBWS 242146Z 09007KT 16/M04 A3009 RMK A01 T01571037  RH  026%=      5-min Rain = 0
KBWS 242147Z 08007KT 16/M04 A3009 RMK A01 T01581036  RH  026%=      5-min Rain = 0
KBWS 242148Z 07008KT 16/M04 A3009 RMK A01 T01581035  RH  026%=      5-min Rain = 0
KBWS 242149Z 08007KT 16/M04 A3009 RMK A01 T01571037  RH  026%=      5-min Rain = 0
KBWS 242150Z 07005KT 16/M04 A3009 RMK A01 T01571037  RH  026%=      5-min Rain = 0
KBWS 242151Z 10006KT 16/M04 A3009 RMK A01 T01571035  RH  026%=      5-min Rain = 0
KBWS 242152Z 08008KT 16/M04 A3009 RMK A01 T01591035  RH  026%=      5-min Rain = 0
KBWS 242153Z 09007KT 16/M04 A3009 RMK A01 T01591038  RH  026%=      5-min Rain = 0
KBWS 242154Z 10005KT 16/M04 A3009 RMK A01 T01571040  RH  026%=      5-min Rain = 0
KBWS 242155Z 11004KT 16/M04 A3009 RMK A01 T01551039  RH  026%=      5-min Rain = 0
KBWS 242156Z 11005KT 16/M04 A3009 RMK A01 T01551038  RH  026%=      5-min Rain = 0
KBWS 242157Z 10006KT 16/M04 A3009 RMK A01 T01551039  RH  026%=      5-min Rain = 0
KBWS 242158Z 12007KT 16/M04 A3009 RMK A01 T01551036  RH  027%=      5-min Rain = 0
KBWS 242159Z 13006KT 16/M04 A3009 RMK A01 T01571036  RH  026%=      5-min Rain = 0
KBWS 242200Z 12005KT 16/M04 A3009 RMK A01 T01561039  RH  026%=      5-min Rain = 0
KBWS 242201Z 11008KT 16/M04 A3009 RMK A01 T01561035  RH  027%=      5-min Rain = 0
KBWS 242202Z 12010KT 16/M03 A3009 RMK A01 T01581034  RH  027%=      5-min Rain = 0
KBWS 242203Z 13011KT 16/M04 A3009 RMK A01 T01571037  RH  026%=      5-min Rain = 0
KBWS 242204Z 12010KT 16/M04 A3009 RMK A01 T01571036  RH  026%=      5-min Rain = 0
KBWS 242205Z 12009KT 16/M04 A3009 RMK A01 T01561038  RH  026%=      5-min Rain = 0
KBWS 242206Z 11010KT 16/M04 A3009 RMK A01 T01561036  RH  026%=      5-min Rain = 0
KBWS 242207Z 11011KT 16/M04 A3009 RMK A01 T01561036  RH  026%=      5-min Rain = 0
KBWS 242208Z 12008KT 16/M04 A3009 RMK A01 T01571036  RH  026%=      5-min Rain = 0
KBWS 242209Z 12007KT 16/M04 A3009 RMK A01 T01571037  RH  026%=      5-min Rain = 0
KBWS 242210Z 12007KT 16/M04 A3009 RMK A01 T01571037  RH  026%=      5-min Rain = 0
KBWS 242211Z 11008KT 16/M04 A3009 RMK A01 T01571037  RH  026%=      5-min Rain = 0
KBWS 242212Z 10007KT 16/M04 A3009 RMK A01 T01571038  RH  026%=      5-min Rain = 0
KBWS 242213Z 09005KT 16/M04 A3009 RMK A01 T01581038  RH  026%=      5-min Rain = 0
KBWS 242214Z 09003KT 16/M04 A3009 RMK A01 T01561039  RH  026%=      5-min Rain = 0
KBWS 242215Z 10005KT 16/M04 A3009 RMK A01 T01551039  RH  026%=      5-min Rain = 0
KBWS 242216Z 10009KT 16/M04 A3009 RMK A01 T01551035  RH  027%=      5-min Rain = 0
KBWS 242217Z 12008KT 16/M03 A3009 RMK A01 T01591030  RH  027%=      5-min Rain = 0
KBWS 242218Z 10008KT 16/M03 A3009 RMK A01 T01611032  RH  027%=      5-min Rain = 0
KBWS 242219Z 11010KT 16/M03 A3009 RMK A01 T01621033  RH  026%=      5-min Rain = 0
KBWS 242220Z 12010KT 16/M03 A3009 RMK A01 T01601033  RH  026%=      5-min Rain = 0
KBWS 242221Z 12009KT 16/M03 A3009 RMK A01 T01601032  RH  026%=      5-min Rain = 0
KBWS 242222Z 13008KT 16/M04 A3009 RMK A01 T01591036  RH  026%=      5-min Rain = 0
KBWS 242223Z 12009KT 16/M03 A3009 RMK A01 T01581034  RH  027%=      5-min Rain = 0
KBWS 242224Z 12007KT 16/M03 A3009 RMK A01 T01581033  RH  027%=      5-min Rain = 0
KBWS 242225Z 11008KT 16/M03 A3009 RMK A01 T01591032  RH  027%=      5-min Rain = 0
KBWS 242226Z 12007KT 16/M04 A3009 RMK A01 T01591036  RH  026%=      5-min Rain = 0
KBWS 242227Z 11006KT 16/M04 A3009 RMK A01 T01571035  RH  026%=      5-min Rain = 0
KBWS 242228Z 11006KT 16/M04 A3009 RMK A01 T01571037  RH  026%=      5-min Rain = 0
KBWS 242229Z 12004KT 16/M04 A3009 RMK A01 T01571036  RH  026%=      5-min Rain = 0
KBWS 242230Z 13005G10KT 16/M04 A3009 RMK A01 T01571036  RH  026%=      5-min Rain = 0
KBWS 242231Z 11008KT 16/M03 A3009 RMK A01 T01581034  RH  027%=      5-min Rain = 0
KBWS 242232Z 11009KT 16/M03 A3009 RMK A01 T01591034  RH  026%=      5-min Rain = 0
KBWS 242233Z 12009KT 16/M04 A3009 RMK A01 T01591035  RH  026%=      5-min Rain = 0
KBWS 242234Z 11007KT 16/M03 A3009 RMK A01 T01581033  RH  027%=      5-min Rain = 0
KBWS 242235Z 12008KT 16/M04 A3009 RMK A01 T01601035  RH  026%=      5-min Rain = 0
KBWS 242236Z 14008KT 16/M04 A3009 RMK A01 T01591035  RH  026%=      5-min Rain = 0
KBWS 242237Z 13006KT 16/M04 A3009 RMK A01 T01591035  RH  026%=      5-min Rain = 0
KBWS 242238Z 12008KT 16/M03 A3008 RMK A01 T01581034  RH  027%=      5-min Rain = 0
KBWS 242239Z 13012KT 16/M03 A3008 RMK A01 T01581031  RH  027%=      5-min Rain = 0
KBWS 242240Z 13009KT 16/M04 A3009 RMK A01 T01581036  RH  026%=      5-min Rain = 0
KBWS 242241Z 14007KT 16/M04 A3008 RMK A01 T01571035  RH  026%=      5-min Rain = 0
KBWS 242242Z 16009KT 16/M04 A3008 RMK A01 T01571035  RH  026%=      5-min Rain = 0
KBWS 242243Z 13007KT 16/M04 A3008 RMK A01 T01581036  RH  026%=      5-min Rain = 0
KBWS 242244Z 11007KT 16/M04 A3008 RMK A01 T01571035  RH  026%=      5-min Rain = 0
KBWS 242245Z 11006KT 16/M04 A3008 RMK A01 T01571037  RH  026%=      5-min Rain = 0
KBWS 242246Z 11007KT 16/M04 A3008 RMK A01 T01551037  RH  026%=      5-min Rain = 0
KBWS 242247Z 12006KT 16/M04 A3008 RMK A01 T01551038  RH  026%=      5-min Rain = 0
KBWS 242248Z 12009KT 16/M03 A3008 RMK A01 T01551032  RH  027%=      5-min Rain = 0
KBWS 242249Z 12012KT 16/M04 A3008 RMK A01 T01571035  RH  027%=      5-min Rain = 0
KBWS 242250Z 12010KT 16/M03 A3008 RMK A01 T01561034  RH  027%=      5-min Rain = 0
KBWS 242251Z 11009KT 16/M03 A3008 RMK A01 T01561034  RH  027%=      5-min Rain = 0
KBWS 242252Z 11006KT 16/M04 A3008 RMK A01 T01561035  RH  027%=      5-min Rain = 0
KBWS 242253Z 12008KT 16/M04 A3008 RMK A01 T01561035  RH  027%=      5-min Rain = 0
KBWS 242254Z 13007KT 16/M04 A3008 RMK A01 T01561036  RH  026%=      5-min Rain = 0
KBWS 242255Z 14005KT 15/M04 A3008 RMK A01 T01541038  RH  026%=      5-min Rain = 0
KBWS 242256Z 14007KT 15/M03 A3008 RMK A01 T01541033  RH  027%=      5-min Rain = 0
KBWS 242257Z 12008KT 16/M03 A3008 RMK A01 T01561033  RH  027%=      5-min Rain = 0
KBWS 242258Z 11011KT 16/M03 A3008 RMK A01 T01571032  RH  027%=      5-min Rain = 0
KBWS 242259Z 11010KT 16/M04 A3008 RMK A01 T01571035  RH  027%=      5-min Rain = 0
KBWS 242300Z 11010KT 16/M03 A3008 RMK A01 T01561033  RH  027%=      5-min Rain = 0
KBWS 242301Z 11011KT 16/M03 A3008 RMK A01 T01561034  RH  027%=      5-min Rain = 0
KBWS 242302Z 12008KT 16/M04 A3008 RMK A01 T01551037  RH  026%=      5-min Rain = 0
KBWS 242303Z 12007KT 15/M04 A3008 RMK A01 T01541036  RH  027%=      5-min Rain = 0
KBWS 242304Z 13006KT 15/M04 A3008 RMK A01 T01541035  RH  027%=      5-min Rain = 0
KBWS 242305Z 12008KT 16/M03 A3008 RMK A01 T01551033  RH  027%=      5-min Rain = 0
KBWS 242306Z 12007KT 16/M04 A3008 RMK A01 T01551037  RH  026%=      5-min Rain = 0
KBWS 242307Z 12009KT 15/M03 A3008 RMK A01 T01541034  RH  027%=      5-min Rain = 0
KBWS 242308Z 11011KT 16/M03 A3008 RMK A01 T01551031  RH  028%=      5-min Rain = 0
KBWS 242309Z 10009KT 16/M03 A3008 RMK A01 T01551034  RH  027%=      5-min Rain = 0
KBWS 242310Z 11007KT 16/M04 A3008 RMK A01 T01551036  RH  027%=      5-min Rain = 0
KBWS 242311Z 12008KT 15/M04 A3008 RMK A01 T01541035  RH  027%=      5-min Rain = 0
KBWS 242312Z 13008KT 16/M03 A3008 RMK A01 T01551031  RH  028%=      5-min Rain = 0
KBWS 242313Z 15007KT 16/M03 A3008 RMK A01 T01571032  RH  027%=      5-min Rain = 0
KBWS 242314Z 15007KT 16/M04 A3008 RMK A01 T01571036  RH  026%=      5-min Rain = 0
KBWS 242315Z 14006KT 16/M04 A3008 RMK A01 T01571035  RH  027%=      5-min Rain = 0
KBWS 242316Z 14010KT 16/M03 A3008 RMK A01 T01581034  RH  027%=      5-min Rain = 0
KBWS 242317Z 15008KT 16/M04 A3008 RMK A01 T01561036  RH  026%=      5-min Rain = 0
KBWS 242318Z 16007KT 16/M04 A3008 RMK A01 T01551036  RH  027%=      5-min Rain = 0
KBWS 242319Z 14006KT 16/M04 A3008 RMK A01 T01551036  RH  027%=      5-min Rain = 0
KBWS 242320Z 12008KT 16/M03 A3008 RMK A01 T01551032  RH  027%=      5-min Rain = 0
KBWS 242321Z 13009KT 16/M04 A3008 RMK A01 T01551035  RH  027%=      5-min Rain = 0
KBWS 242322Z 13010KT 16/M03 A3008 RMK A01 T01551033  RH  027%=      5-min Rain = 0
KBWS 242323Z 12009KT 16/M03 A3008 RMK A01 T01551034  RH  027%=      5-min Rain = 0
KBWS 242324Z 13007KT 15/M03 A3008 RMK A01 T01541033  RH  027%=      5-min Rain = 0
KBWS 242325Z 12007KT 15/M03 A3008 RMK A01 T01541032  RH  028%=      5-min Rain = 0
KBWS 242326Z 12007KT 15/M04 A3008 RMK A01 T01541037  RH  027%=      5-min Rain = 0
KBWS 242327Z 12007KT 15/M04 A3008 RMK A01 T01531037  RH  027%=      5-min Rain = 0
KBWS 242328Z 12007KT 15/M03 A3008 RMK A01 T01531034  RH  027%=      5-min Rain = 0
KBWS 242329Z 12009KT 15/M03 A3008 RMK A01 T01541032  RH  028%=      5-min Rain = 0
KBWS 242330Z 12008KT 15/M04 A3008 RMK A01 T01541036  RH  027%=      5-min Rain = 0
KBWS 242331Z 13010KT 15/M03 A3008 RMK A01 T01531033  RH  028%=      5-min Rain = 0
KBWS 242332Z 14010KT 15/M04 A3008 RMK A01 T01531035  RH  027%=      5-min Rain = 0
KBWS 242333Z 15008KT 15/M04 A3008 RMK A01 T01531035  RH  027%=      5-min Rain = 0
KBWS 242334Z 14008KT 15/M04 A3008 RMK A01 T01531035  RH  027%=      5-min Rain = 0
KBWS 242335Z 13007KT 15/M04 A3008 RMK A01 T01531036  RH  027%=      5-min Rain = 0
KBWS 242336Z 13009KT 15/M03 A3008 RMK A01 T01531031  RH  028%=      5-min Rain = 0
KBWS 242337Z 13010KT 15/M03 A3008 RMK A01 T01531032  RH  028%=      5-min Rain = 0
KBWS 242338Z 13010KT 15/M03 A3008 RMK A01 T01521033  RH  028%=      5-min Rain = 0
KBWS 242339Z 13009KT 15/M03 A3008 RMK A01 T01511033  RH  028%=      5-min Rain = 0
KBWS 242340Z 13008KT 15/M03 A3008 RMK A01 T01511033  RH  028%=      5-min Rain = 0
KBWS 242341Z 12008KT 15/M03 A3008 RMK A01 T01511029  RH  029%=      5-min Rain = 0
KBWS 242342Z 11009KT 15/M03 A3008 RMK A01 T01511032  RH  028%=      5-min Rain = 0
KBWS 242343Z 12008KT 15/M03 A3008 RMK A01 T01511034  RH  028%=      5-min Rain = 0
KBWS 242344Z 13008KT 15/M03 A3008 RMK A01 T01501032  RH  028%=      5-min Rain = 0
KBWS 242345Z 13008KT 15/M04 A3008 RMK A01 T01501036  RH  027%=      5-min Rain = 0
KBWS 242346Z 13010KT 15/M03 A3008 RMK A01 T01501031  RH  029%=      5-min Rain = 0
KBWS 242347Z 13009KT 15/M03 A3008 RMK A01 T01501032  RH  028%=      5-min Rain = 0
KBWS 242348Z 13009KT 15/M03 A3008 RMK A01 T01501032  RH  028%=      5-min Rain = 0
KBWS 242349Z 12009KT 15/M03 A3008 RMK A01 T01501032  RH  028%=      5-min Rain = 0
KBWS 242350Z 12009KT 15/M03 A3008 RMK A01 T01501032  RH  028%=      5-min Rain = 0
KBWS 242351Z 11009KT 15/M03 A3008 RMK A01 T01501032  RH  028%=      5-min Rain = 0
KBWS 242352Z 12009KT 15/M03 A3008 RMK A01 T01501032  RH  028%=      5-min Rain = 0
KBWS 242353Z 12009KT 15/M03 A3008 RMK A01 T01491032  RH  029%=      5-min Rain = 0
KBWS 242354Z 12009KT 15/M04 A3008 RMK A01 T01491035  RH  028%=      5-min Rain = 0
KBWS 242355Z 12008KT 15/M03 A3008 RMK A01 T01491034  RH  028%=      5-min Rain = 0
KBWS 242356Z 12008KT 15/M03 A3008 RMK A01 T01481031  RH  029%=      5-min Rain = 0
KBWS 242357Z 12008KT 15/M03 A3008 RMK A01 T01481031  RH  029%=      5-min Rain = 0
KBWS 242358Z 12008KT 15/M03 A3008 RMK A01 T01471030  RH  029%=      5-min Rain = 0
KBWS 242359Z 12008KT 15/M03 A3008 RMK A01 T01471031  RH  029%=      5-min Rain = 0
KBWS 250000Z 11008KT 15/M03 A3008 RMK A01 T01471031  RH  029%=      5-min Rain = 0
KBWS 250001Z 11009KT 15/M03 A3008 RMK A01 T01471033  RH  029%=      5-min Rain = 0
KBWS 250002Z 11009KT 15/M04 A3008 RMK A01 T01471035  RH  028%=      5-min Rain = 0
KBWS 250003Z 11008KT 15/M03 A3008 RMK A01 T01471034  RH  028%=      5-min Rain = 0
KBWS 250004Z 11008KT 15/M03 A3008 RMK A01 T01471033  RH  029%=      5-min Rain = 0
KBWS 250005Z 11007KT 15/M03 A3008 RMK A01 T01461031  RH  029%=      5-min Rain = 0
KBWS 250006Z 12009KT 15/M03 A3008 RMK A01 T01461031  RH  029%=      5-min Rain = 0
KBWS 250007Z 11010KT 15/M03 A3008 RMK A01 T01451032  RH  029%=      5-min Rain = 0
KBWS 250008Z 11009KT 15/M03 A3008 RMK A01 T01451033  RH  029%=      5-min Rain = 0
KBWS 250009Z 11008KT 15/M03 A3008 RMK A01 T01451032  RH  029%=      5-min Rain = 0
KBWS 250010Z 11008KT 14/M03 A3008 RMK A01 T01441032  RH  029%=      5-min Rain = 0
KBWS 250011Z 11008KT 14/M03 A3008 RMK A01 T01441033  RH  029%=      5-min Rain = 0
KBWS 250012Z 11008KT 14/M03 A3008 RMK A01 T01431034  RH  029%=      5-min Rain = 0
KBWS 250013Z 10007KT 14/M04 A3008 RMK A01 T01431035  RH  029%=      5-min Rain = 0
KBWS 250014Z 10007KT 14/M03 A3008 RMK A01 T01431034  RH  029%=      5-min Rain = 0
KBWS 250015Z 10007KT 14/M03 A3008 RMK A01 T01431033  RH  029%=      5-min Rain = 0
KBWS 250016Z 10006KT 14/M03 A3008 RMK A01 T01421032  RH  030%=      5-min Rain = 0
KBWS 250017Z 10007KT 14/M03 A3008 RMK A01 T01411032  RH  030%=      5-min Rain = 0
KBWS 250018Z 10007KT 14/M03 A3009 RMK A01 T01411033  RH  030%=      5-min Rain = 0
KBWS 250019Z 10007KT 14/M03 A3009 RMK A01 T01411033  RH  030%=      5-min Rain = 0
KBWS 250020Z 10007KT 14/M03 A3009 RMK A01 T01401031  RH  030%=      5-min Rain = 0
KBWS 250021Z 10007KT 14/M03 A3009 RMK A01 T01391033  RH  030%=      5-min Rain = 0
KBWS 250022Z 10006KT 14/M03 A3009 RMK A01 T01391032  RH  030%=      5-min Rain = 0
KBWS 250023Z 10007KT 14/M03 A3008 RMK A01 T01381033  RH  030%=      5-min Rain = 0
KBWS 250024Z 10007KT 14/M03 A3009 RMK A01 T01381034  RH  030%=      5-min Rain = 0
KBWS 250025Z 10006KT 14/M03 A3009 RMK A01 T01371032  RH  031%=      5-min Rain = 0
KBWS 250026Z 10006KT 14/M03 A3009 RMK A01 T01361032  RH  031%=      5-min Rain = 0
KBWS 250027Z 09006KT 14/M03 A3009 RMK A01 T01351034  RH  031%=      5-min Rain = 0
KBWS 250028Z 10006KT 13/M04 A3009 RMK A01 T01341035  RH  031%=      5-min Rain = 0
KBWS 250029Z 09006KT 13/M03 A3009 RMK A01 T01341034  RH  031%=      5-min Rain = 0
KBWS 250030Z 09007KT 13/M04 A3009 RMK A01 T01331035  RH  031%=      5-min Rain = 0
KBWS 250031Z 09006KT 13/M04 A3009 RMK A01 T01331035  RH  031%=      5-min Rain = 0
KBWS 250032Z 09006KT 13/M04 A3009 RMK A01 T01331036  RH  031%=      5-min Rain = 0
KBWS 250033Z 09007KT 13/M04 A3009 RMK A01 T01321036  RH  031%=      5-min Rain = 0
KBWS 250034Z 09006KT 13/M04 A3009 RMK A01 T01311036  RH  031%=      5-min Rain = 0
KBWS 250035Z 09007KT 13/M04 A3009 RMK A01 T01301036  RH  031%=      5-min Rain = 0
KBWS 250036Z 09007KT 13/M04 A3009 RMK A01 T01291036  RH  031%=      5-min Rain = 0
KBWS 250037Z 09007KT 13/M04 A3009 RMK A01 T01291036  RH  032%=      5-min Rain = 0
KBWS 250038Z 09007KT 13/M04 A3009 RMK A01 T01281035  RH  032%=      5-min Rain = 0
KBWS 250039Z 10007KT 13/M04 A3009 RMK A01 T01271035  RH  032%=      5-min Rain = 0
KBWS 250040Z 10007KT 13/M04 A3009 RMK A01 T01261035  RH  032%=      5-min Rain = 0
KBWS 250041Z 10007KT 13/M04 A3009 RMK A01 T01251035  RH  033%=      5-min Rain = 0
KBWS 250042Z 10008KT 12/M03 A3009 RMK A01 T01231034  RH  033%=      5-min Rain = 0
KBWS 250043Z 10008KT 12/M03 A3009 RMK A01 T01211034  RH  034%=      5-min Rain = 0
KBWS 250044Z 10007KT 12/M03 A3009 RMK A01 T01211034  RH  034%=      5-min Rain = 0
KBWS 250045Z 10008KT 12/M03 A3009 RMK A01 T01201034  RH  034%=      5-min Rain = 0
KBWS 250046Z 10008KT 12/M03 A3009 RMK A01 T01201034  RH  034%=      5-min Rain = 0
KBWS 250047Z 10008KT 12/M03 A3009 RMK A01 T01201034  RH  034%=      5-min Rain = 0
KBWS 250048Z 10008KT 12/M04 A3009 RMK A01 T01191035  RH  034%=      5-min Rain = 0
KBWS 250049Z 10008KT 12/M04 A3009 RMK A01 T01181035  RH  034%=      5-min Rain = 0
KBWS 250050Z 10008KT 12/M04 A3009 RMK A01 T01171035  RH  034%=      5-min Rain = 0
KBWS 250051Z 10008KT 12/M04 A3009 RMK A01 T01171035  RH  034%=      5-min Rain = 0
KBWS 250052Z 10008KT 12/M04 A3009 RMK A01 T01171035  RH  034%=      5-min Rain = 0
KBWS 250053Z 09008KT 12/M04 A301 RMK A01 T01171035  RH  034%=      5-min Rain = 0
KBWS 250054Z 09008KT 12/M04 A301 RMK A01 T01161035  RH  035%=      5-min Rain = 0
KBWS 250055Z 09007KT 12/M04 A301 RMK A01 T01151035  RH  035%=      5-min Rain = 0
KBWS 250056Z 09008KT 11/M04 A301 RMK A01 T01141035  RH  035%=      5-min Rain = 0
KBWS 250057Z 09007KT 11/M04 A301 RMK A01 T01141036  RH  035%=      5-min Rain = 0
KBWS 250058Z 09007KT 11/M04 A301 RMK A01 T01141037  RH  035%=      5-min Rain = 0
KBWS 250059Z 09008KT 11/M04 A301 RMK A01 T01141037  RH  035%=      5-min Rain = 0
KBWS 250100Z 09008KT 11/M04 A301 RMK A01 T01131037  RH  035%=      5-min Rain = 0
KBWS 250101Z 09007KT 11/M04 A301 RMK A01 T01131037  RH  035%=      5-min Rain = 0
KBWS 250102Z 09007KT 11/M04 A301 RMK A01 T01121037  RH  035%=      5-min Rain = 0
KBWS 250103Z 09008KT 11/M04 A301 RMK A01 T01111037  RH  035%=      5-min Rain = 0
KBWS 250104Z 09008KT 11/M04 A301 RMK A01 T01101037  RH  035%=      5-min Rain = 0
KBWS 250105Z 09008KT 11/M04 A301 RMK A01 T01101037  RH  035%=      5-min Rain = 0
KBWS 250106Z 09008KT 11/M04 A301 RMK A01 T01101037  RH  035%=      5-min Rain = 0
KBWS 250107Z 09008KT 11/M04 A301 RMK A01 T01101037  RH  035%=      5-min Rain = 0
KBWS 250108Z 09008KT 11/M04 A301 RMK A01 T01091037  RH  036%=      5-min Rain = 0
KBWS 250109Z 09009KT 11/M04 A301 RMK A01 T01091037  RH  036%=      5-min Rain = 0
KBWS 250110Z 09009KT 11/M04 A301 RMK A01 T01091037  RH  036%=      5-min Rain = 0
KBWS 250111Z 09008KT 11/M04 A301 RMK A01 T01091037  RH  036%=      5-min Rain = 0
KBWS 250112Z 09008KT 11/M04 A301 RMK A01 T01091037  RH  036%=      5-min Rain = 0
KBWS 250113Z 09009KT 11/M04 A301 RMK A01 T01091038  RH  035%=      5-min Rain = 0
KBWS 250114Z 09009KT 11/M04 A301 RMK A01 T01091039  RH  035%=      5-min Rain = 0
KBWS 250115Z 09009KT 11/M04 A301 RMK A01 T01091039  RH  035%=      5-min Rain = 0
KBWS 250116Z 09009KT 11/M04 A301 RMK A01 T01081039  RH  035%=      5-min Rain = 0
KBWS 250117Z 09009KT 11/M04 A3011 RMK A01 T01071040  RH  035%=      5-min Rain = 0
KBWS 250118Z 09009KT 11/M04 A3011 RMK A01 T01071040  RH  035%=      5-min Rain = 0
KBWS 250119Z 09009KT 11/M04 A3011 RMK A01 T01061040  RH  036%=      5-min Rain = 0
KBWS 250120Z 08008KT 11/M04 A3011 RMK A01 T01061040  RH  036%=      5-min Rain = 0
KBWS 250121Z 08008KT 11/M04 A3011 RMK A01 T01051040  RH  036%=      5-min Rain = 0
KBWS 250122Z 08008KT 10/M04 A3011 RMK A01 T01041040  RH  036%=      5-min Rain = 0
KBWS 250123Z 08008KT 10/M04 A3011 RMK A01 T01031040  RH  036%=      5-min Rain = 0
KBWS 250124Z 08008KT 10/M04 A3011 RMK A01 T01021041  RH  036%=      5-min Rain = 0
KBWS 250125Z 08009KT 10/M04 A3011 RMK A01 T01021041  RH  036%=      5-min Rain = 0
KBWS 250126Z 08009KT 10/M04 A3011 RMK A01 T01021041  RH  036%=      5-min Rain = 0
KBWS 250127Z 08008KT 10/M04 A3011 RMK A01 T01021041  RH  036%=      5-min Rain = 0
KBWS 250128Z 08009KT 10/M04 A3011 RMK A01 T01011041  RH  036%=      5-min Rain = 0
KBWS 250129Z 08008KT 10/M04 A3011 RMK A01 T01011042  RH  036%=      5-min Rain = 0
KBWS 250130Z 08009KT 10/M04 A3011 RMK A01 T01011042  RH  036%=      5-min Rain = 0
KBWS 250131Z 08009KT 10/M04 A3011 RMK A01 T01011042  RH  036%=      5-min Rain = 0
KBWS 250132Z 08008KT 10/M04 A3011 RMK A01 T01001042  RH  037%=      5-min Rain = 0
KBWS 250133Z 08008KT 10/M04 A3011 RMK A01 T00991042  RH  037%=      5-min Rain = 0
KBWS 250134Z 08009KT 10/M04 A3011 RMK A01 T00981042  RH  037%=      5-min Rain = 0
KBWS 250135Z 08009KT 10/M04 A3012 RMK A01 T00981042  RH  037%=      5-min Rain = 0
KBWS 250136Z 08009KT 10/M04 A3012 RMK A01 T00971042  RH  037%=      5-min Rain = 0
KBWS 250137Z 08008KT 10/M04 A3012 RMK A01 T00971043  RH  037%=      5-min Rain = 0
KBWS 250138Z 08008KT 10/M04 A3012 RMK A01 T00961043  RH  037%=      5-min Rain = 0
KBWS 250139Z 08008KT 10/M04 A3012 RMK A01 T00961043  RH  037%=      5-min Rain = 0
KBWS 250140Z 08008KT 10/M04 A3012 RMK A01 T00951043  RH  037%=      5-min Rain = 0
KBWS 250141Z 08008KT 10/M04 A3012 RMK A01 T00951043  RH  037%=      5-min Rain = 0
KBWS 250142Z 08008KT 09/M04 A3012 RMK A01 T00941043  RH  038%=      5-min Rain = 0
KBWS 250143Z 08009KT 09/M04 A3012 RMK A01 T00931043  RH  038%=      5-min Rain = 0
KBWS 250144Z 08008KT 09/M04 A3012 RMK A01 T00931043  RH  038%=      5-min Rain = 0
KBWS 250145Z 08009KT 09/M04 A3012 RMK A01 T00921043  RH  038%=      5-min Rain = 0
KBWS 250146Z 08009KT 09/M04 A3012 RMK A01 T00921044  RH  038%=      5-min Rain = 0
KBWS 250147Z 08009KT 09/M04 A3012 RMK A01 T00911043  RH  038%=      5-min Rain = 0
KBWS 250148Z 08008KT 09/M04 A3012 RMK A01 T00911043  RH  038%=      5-min Rain = 0
KBWS 250149Z 08009KT 09/M04 A3012 RMK A01 T00911043  RH  038%=      5-min Rain = 0
KBWS 250150Z 08008KT 09/M04 A3012 RMK A01 T00911044  RH  038%=      5-min Rain = 0
KBWS 250151Z 08009KT 09/M04 A3012 RMK A01 T00901044  RH  038%=      5-min Rain = 0
KBWS 250152Z 08009KT 09/M04 A3012 RMK A01 T00891044  RH  039%=      5-min Rain = 0
KBWS 250153Z 08009KT 09/M04 A3012 RMK A01 T00881044  RH  039%=      5-min Rain = 0
KBWS 250154Z 08009KT 09/M04 A3012 RMK A01 T00881044  RH  039%=      5-min Rain = 0
KBWS 250155Z 08009KT 09/M04 A3012 RMK A01 T00871044  RH  039%=      5-min Rain = 0
KBWS 250156Z 08008KT 09/M04 A3012 RMK A01 T00871043  RH  039%=      5-min Rain = 0
KBWS 250157Z 07008KT 09/M04 A3012 RMK A01 T00871043  RH  040%=      5-min Rain = 0
KBWS 250158Z 07009KT 09/M04 A3012 RMK A01 T00871042  RH  040%=      5-min Rain = 0
KBWS 250159Z 07008KT 09/M04 A3012 RMK A01 T00871041  RH  040%=      5-min Rain = 0
KBWS 250200Z 08010KT 09/M04 A3012 RMK A01 T00871042  RH  040%=      5-min Rain = 0
KBWS 250201Z 08009KT 09/M04 A3012 RMK A01 T00881042  RH  040%=      5-min Rain = 0
KBWS 250202Z 07009KT 09/M04 A3012 RMK A01 T00881043  RH  039%=      5-min Rain = 0
KBWS 250203Z 07009KT 09/M04 A3012 RMK A01 T00881043  RH  039%=      5-min Rain = 0
KBWS 250204Z 07009KT 09/M04 A3012 RMK A01 T00881043  RH  039%=      5-min Rain = 0
KBWS 250205Z 07009KT 09/M04 A3012 RMK A01 T00881043  RH  040%=      5-min Rain = 0
KBWS 250206Z 07009KT 09/M04 A3012 RMK A01 T00871043  RH  040%=      5-min Rain = 0
KBWS 250207Z 07009KT 09/M04 A3012 RMK A01 T00871042  RH  040%=      5-min Rain = 0
KBWS 250208Z 07009KT 09/M04 A3012 RMK A01 T00861042  RH  040%=      5-min Rain = 0
KBWS 250209Z 07008KT 09/M04 A3012 RMK A01 T00861042  RH  040%=      5-min Rain = 0
KBWS 250210Z 07008KT 09/M04 A3012 RMK A01 T00851042  RH  040%=      5-min Rain = 0
KBWS 250211Z 07008KT 09/M04 A3013 RMK A01 T00851042  RH  041%=      5-min Rain = 0
KBWS 250212Z 07008KT 08/M04 A3013 RMK A01 T00841042  RH  041%=      5-min Rain = 0
KBWS 250213Z 07008KT 08/M04 A3013 RMK A01 T00841042  RH  041%=      5-min Rain = 0
KBWS 250214Z 07008KT 08/M04 A3013 RMK A01 T00841042  RH  041%=      5-min Rain = 0
KBWS 250215Z 07008KT 08/M04 A3013 RMK A01 T00831042  RH  041%=      5-min Rain = 0
KBWS 250216Z 07009KT 08/M04 A3013 RMK A01 T00831042  RH  041%=      5-min Rain = 0
KBWS 250217Z 07009KT 08/M04 A3013 RMK A01 T00831042  RH  041%=      5-min Rain = 0
KBWS 250218Z 07009KT 08/M04 A3013 RMK A01 T00831042  RH  041%=      5-min Rain = 0
KBWS 250219Z 08008KT 08/M04 A3013 RMK A01 T00831043  RH  041%=      5-min Rain = 0
KBWS 250220Z 08008KT 08/M04 A3013 RMK A01 T00821043  RH  041%=      5-min Rain = 0
KBWS 250221Z 08008KT 08/M04 A3013 RMK A01 T00811043  RH  041%=      5-min Rain = 0
KBWS 250222Z 08008KT 08/M04 A3013 RMK A01 T00811043  RH  041%=      5-min Rain = 0
KBWS 250223Z 08009KT 08/M04 A3013 RMK A01 T00801043  RH  041%=      5-min Rain = 0
KBWS 250224Z 08009KT 08/M04 A3013 RMK A01 T00791043  RH  042%=      5-min Rain = 0
KBWS 250225Z 08009KT 08/M04 A3013 RMK A01 T00781043  RH  042%=      5-min Rain = 0
KBWS 250226Z 08010KT 08/M04 A3013 RMK A01 T00781043  RH  042%=      5-min Rain = 0
KBWS 250227Z 08010KT 08/M04 A3012 RMK A01 T00781043  RH  042%=      5-min Rain = 0
KBWS 250228Z 08010KT 08/M04 A3013 RMK A01 T00781043  RH  042%=      5-min Rain = 0
KBWS 250229Z 09009KT 08/M04 A3013 RMK A01 T00781042  RH  042%=      5-min Rain = 0
KBWS 250230Z 08009KT 08/M04 A3013 RMK A01 T00771042  RH  042%=      5-min Rain = 0
KBWS 250231Z 08009KT 08/M04 A3013 RMK A01 T00771042  RH  043%=      5-min Rain = 0
KBWS 250232Z 08009KT 08/M04 A3013 RMK A01 T00761042  RH  043%=      5-min Rain = 0
KBWS 250233Z 08009KT 08/M04 A3013 RMK A01 T00761042  RH  043%=      5-min Rain = 0
KBWS 250234Z 08009KT 08/M04 A3012 RMK A01 T00751042  RH  043%=      5-min Rain = 0
KBWS 250235Z 08009KT 07/M04 A3012 RMK A01 T00741042  RH  043%=      5-min Rain = 0
KBWS 250236Z 08009KT 08/M04 A3012 RMK A01 T00751042  RH  043%=      5-min Rain = 0
KBWS 250237Z 08009KT 08/M04 A3013 RMK A01 T00751042  RH  043%=      5-min Rain = 0
KBWS 250238Z 08009KT 08/M04 A3013 RMK A01 T00751042  RH  043%=      5-min Rain = 0
KBWS 250239Z 08010KT 08/M04 A3013 RMK A01 T00751041  RH  043%=      5-min Rain = 0
KBWS 250240Z 08009KT 08/M04 A3013 RMK A01 T00751041  RH  043%=      5-min Rain = 0
KBWS 250241Z 08009KT 08/M04 A3013 RMK A01 T00761041  RH  043%=      5-min Rain = 0
KBWS 250242Z 08009KT 08/M04 A3013 RMK A01 T00761042  RH  043%=      5-min Rain = 0
KBWS 250243Z 08009KT 08/M04 A3013 RMK A01 T00761042  RH  043%=      5-min Rain = 0
KBWS 250244Z 08009KT 08/M04 A3013 RMK A01 T00761042  RH  043%=      5-min Rain = 0
KBWS 250245Z 08009KT 08/M04 A3013 RMK A01 T00761042  RH  043%=      5-min Rain = 0
KBWS 250246Z 08010KT 08/M04 A3013 RMK A01 T00771041  RH  043%=      5-min Rain = 0
KBWS 250247Z 08010KT 08/M04 A3013 RMK A01 T00771042  RH  043%=      5-min Rain = 0
KBWS 250248Z 09010KT 08/M04 A3013 RMK A01 T00771041  RH  043%=      5-min Rain = 0
KBWS 250249Z 08010KT 08/M04 A3013 RMK A01 T00771042  RH  043%=      5-min Rain = 0
KBWS 250250Z 08010KT 08/M04 A3013 RMK A01 T00771041  RH  043%=      5-min Rain = 0
KBWS 250251Z 08009KT 08/M04 A3013 RMK A01 T00771041  RH  043%=      5-min Rain = 0
KBWS 250252Z 08010KT 08/M04 A3013 RMK A01 T00761041  RH  043%=      5-min Rain = 0
KBWS 250253Z 08010KT 08/M04 A3013 RMK A01 T00761041  RH  043%=      5-min Rain = 0
KBWS 250254Z 08010KT 08/M04 A3013 RMK A01 T00761041  RH  043%=      5-min Rain = 0
KBWS 250255Z 08010KT 08/M04 A3013 RMK A01 T00751041  RH  044%=      5-min Rain = 0
KBWS 250256Z 08010KT 07/M04 A3013 RMK A01 T00741041  RH  044%=      5-min Rain = 0
KBWS 250257Z 08011KT 07/M04 A3013 RMK A01 T00741041  RH  044%=      5-min Rain = 0
KBWS 250258Z 08011KT 08/M04 A3013 RMK A01 T00751041  RH  044%=      5-min Rain = 0
KBWS 250259Z 08011KT 08/M04 A3013 RMK A01 T00751041  RH  044%=      5-min Rain = 0
KBWS 250300Z 08011KT 08/M04 A3013 RMK A01 T00751041  RH  044%=      5-min Rain = 0
KBWS 250301Z 08011KT 07/M04 A3013 RMK A01 T00741041  RH  044%=      5-min Rain = 0
KBWS 250302Z 08011KT 07/M04 A3013 RMK A01 T00741041  RH  044%=      5-min Rain = 0
KBWS 250303Z 08012KT 07/M04 A3013 RMK A01 T00741041  RH  044%=      5-min Rain = 0
KBWS 250304Z 08010KT 08/M04 A3014 RMK A01 T00751041  RH  044%=      5-min Rain = 0
KBWS 250305Z 09012KT 08/M04 A3013 RMK A01 T00751041  RH  044%=      5-min Rain = 0
KBWS 250306Z 08011KT 08/M04 A3013 RMK A01 T00751041  RH  044%=      5-min Rain = 0
KBWS 250307Z 08011KT 08/M04 A3013 RMK A01 T00751041  RH  044%=      5-min Rain = 0
KBWS 250308Z 08011KT 08/M04 A3013 RMK A01 T00751041  RH  044%=      5-min Rain = 0
KBWS 250309Z 08011KT 07/M04 A3013 RMK A01 T00741041  RH  044%=      5-min Rain = 0
KBWS 250310Z 08011KT 07/M04 A3014 RMK A01 T00741041  RH  044%=      5-min Rain = 0
KBWS 250311Z 08011KT 07/M04 A3014 RMK A01 T00731041  RH  044%=      5-min Rain = 0
KBWS 250312Z 08010KT 07/M04 A3014 RMK A01 T00731041  RH  044%=      5-min Rain = 0
KBWS 250313Z 08011KT 07/M04 A3013 RMK A01 T00731041  RH  044%=      5-min Rain = 0
KBWS 250314Z 08011KT 07/M04 A3014 RMK A01 T00731041  RH  044%=      5-min Rain = 0
KBWS 250315Z 09011KT 07/M04 A3014 RMK A01 T00731041  RH  044%=      5-min Rain = 0
KBWS 250316Z 09011KT 07/M04 A3014 RMK A01 T00731041  RH  044%=      5-min Rain = 0
KBWS 250317Z 09012KT 07/M04 A3014 RMK A01 T00721041  RH  044%=      5-min Rain = 0
KBWS 250318Z 09010KT 07/M04 A3014 RMK A01 T00721041  RH  044%=      5-min Rain = 0
KBWS 250319Z 09011KT 07/M04 A3013 RMK A01 T00721041  RH  045%=      5-min Rain = 0
KBWS 250320Z 08011KT 07/M04 A3013 RMK A01 T00711041  RH  045%=      5-min Rain = 0
KBWS 250321Z 09011KT 07/M04 A3013 RMK A01 T00711041  RH  045%=      5-min Rain = 0
KBWS 250322Z 09011KT 07/M04 A3013 RMK A01 T00711041  RH  045%=      5-min Rain = 0
KBWS 250323Z 09011KT 07/M04 A3013 RMK A01 T00711041  RH  045%=      5-min Rain = 0
KBWS 250324Z 09011KT 07/M04 A3013 RMK A01 T00701041  RH  045%=      5-min Rain = 0
KBWS 250325Z 09011KT 07/M04 A3013 RMK A01 T00701041  RH  045%=      5-min Rain = 0
KBWS 250326Z 09011KT 07/M04 A3014 RMK A01 T00711041  RH  045%=      5-min Rain = 0
KBWS 250327Z 08011KT 07/M04 A3014 RMK A01 T00701041  RH  045%=      5-min Rain = 0
KBWS 250328Z 09010KT 07/M04 A3014 RMK A01 T00701041  RH  045%=      5-min Rain = 0
KBWS 250329Z 08011KT 07/M04 A3014 RMK A01 T00701041  RH  045%=      5-min Rain = 0
KBWS 250330Z 08010KT 07/M04 A3014 RMK A01 T00691041  RH  045%=      5-min Rain = 0
KBWS 250331Z 09010KT 07/M04 A3014 RMK A01 T00691041  RH  045%=      5-min Rain = 0
KBWS 250332Z 09011KT 07/M04 A3014 RMK A01 T00681041  RH  045%=      5-min Rain = 0
KBWS 250333Z 09012KT 07/M04 A3014 RMK A01 T00691041  RH  045%=      5-min Rain = 0
KBWS 250334Z 09012KT 07/M04 A3013 RMK A01 T00691042  RH  045%=      5-min Rain = 0
KBWS 250335Z 09011KT 07/M04 A3014 RMK A01 T00691042  RH  045%=      5-min Rain = 0
KBWS 250336Z 09012KT 07/M04 A3014 RMK A01 T00691042  RH  045%=      5-min Rain = 0
KBWS 250337Z 09012KT 07/M04 A3014 RMK A01 T00691042  RH  045%=      5-min Rain = 0
KBWS 250338Z 09012KT 07/M04 A3014 RMK A01 T00691042  RH  045%=      5-min Rain = 0
KBWS 250339Z 09012KT 07/M04 A3014 RMK A01 T00691042  RH  045%=      5-min Rain = 0
KBWS 250340Z 09012KT 07/M04 A3014 RMK A01 T00701042  RH  045%=      5-min Rain = 0
KBWS 250341Z 09012KT 07/M04 A3014 RMK A01 T00701042  RH  045%=      5-min Rain = 0
KBWS 250342Z 09012KT 07/M04 A3014 RMK A01 T00701043  RH  045%=      5-min Rain = 0
KBWS 250343Z 09011KT 07/M04 A3014 RMK A01 T00701043  RH  045%=      5-min Rain = 0
KBWS 250344Z 08011KT 07/M04 A3014 RMK A01 T00701042  RH  045%=      5-min Rain = 0
KBWS 250345Z 09011KT 07/M04 A3014 RMK A01 T00691043  RH  045%=      5-min Rain = 0
KBWS 250346Z 08011KT 07/M04 A3014 RMK A01 T00681043  RH  045%=      5-min Rain = 0
KBWS 250347Z 09012KT 07/M04 A3014 RMK A01 T00681043  RH  045%=      5-min Rain = 0
KBWS 250348Z 09012KT 07/M04 A3014 RMK A01 T00681043  RH  045%=      5-min Rain = 0
KBWS 250349Z 09011KT 07/M04 A3014 RMK A01 T00691043  RH  045%=      5-min Rain = 0
KBWS 250350Z 09011KT 07/M04 A3014 RMK A01 T00691044  RH  045%=      5-min Rain = 0
KBWS 250351Z 09012KT 07/M04 A3014 RMK A01 T00691044  RH  044%=      5-min Rain = 0
KBWS 250352Z 09012KT 07/M04 A3014 RMK A01 T00691044  RH  044%=      5-min Rain = 0
KBWS 250353Z 08012KT 07/M05 A3014 RMK A01 T00691045  RH  044%=      5-min Rain = 0
KBWS 250354Z 09012KT 07/M05 A3015 RMK A01 T00691045  RH  044%=      5-min Rain = 0
KBWS 250355Z 09012KT 07/M05 A3015 RMK A01 T00691045  RH  044%=      5-min Rain = 0
KBWS 250356Z 09012KT 07/M05 A3015 RMK A01 T00691046  RH  044%=      5-min Rain = 0
KBWS 250357Z 09012KT 07/M05 A3015 RMK A01 T00691046  RH  044%=      5-min Rain = 0
KBWS 250358Z 09011KT 07/M05 A3015 RMK A01 T00691046  RH  044%=      5-min Rain = 0
KBWS 250359Z 09012KT 07/M05 A3015 RMK A01 T00691046  RH  044%=      5-min Rain = 0
KBWS 250400Z 09011KT 07/M05 A3015 RMK A01 T00681046  RH  044%=      5-min Rain = 0
KBWS 250401Z 09011KT 07/M05 A3015 RMK A01 T00681046  RH  044%=      5-min Rain = 0
KBWS 250402Z 09011KT 07/M05 A3015 RMK A01 T00671047  RH  044%=      5-min Rain = 0
KBWS 250403Z 09012KT 07/M05 A3015 RMK A01 T00681047  RH  044%=      5-min Rain = 0
KBWS 250404Z 09011KT 07/M05 A3015 RMK A01 T00671047  RH  044%=      5-min Rain = 0
KBWS 250405Z 09011KT 07/M05 A3015 RMK A01 T00671047  RH  044%=      5-min Rain = 0
KBWS 250406Z 09012KT 07/M05 A3015 RMK A01 T00671048  RH  044%=      5-min Rain = 0
KBWS 250407Z 09012KT 07/M05 A3016 RMK A01 T00671048  RH  044%=      5-min Rain = 0
KBWS 250408Z 09011KT 07/M05 A3016 RMK A01 T00671049  RH  043%=      5-min Rain = 0
KBWS 250409Z 09011KT 07/M05 A3016 RMK A01 T00671049  RH  043%=      5-min Rain = 0
KBWS 250410Z 09010KT 07/M05 A3016 RMK A01 T00671049  RH  043%=      5-min Rain = 0
KBWS 250411Z 09010KT 07/M05 A3016 RMK A01 T00671049  RH  043%=      5-min Rain = 0
KBWS 250412Z 09009KT 07/M05 A3016 RMK A01 T00661049  RH  043%=      5-min Rain = 0
KBWS 250413Z 09010G15KT 07/M05 A3016 RMK A01 T00651049  RH  044%=      5-min Rain = 0
KBWS 250414Z 09010KT 07/M05 A3016 RMK A01 T00651049  RH  044%=      5-min Rain = 0
KBWS 250415Z 09011KT 07/M05 A3016 RMK A01 T00651050  RH  044%=      5-min Rain = 0
KBWS 250416Z 09013G18KT 07/M05 A3016 RMK A01 T00661050  RH  043%=      5-min Rain = 0
KBWS 250417Z 09013G18KT 07/M05 A3016 RMK A01 T00681050  RH  043%=      5-min Rain = 0
KBWS 250418Z 09013KT 07/M05 A3016 RMK A01 T00691051  RH  042%=      5-min Rain = 0
KBWS 250419Z 09012KT 07/M05 A3016 RMK A01 T00701051  RH  042%=      5-min Rain = 0
KBWS 250420Z 09013KT 07/M05 A3016 RMK A01 T00701051  RH  042%=      5-min Rain = 0
KBWS 250421Z 09013KT 07/M05 A3016 RMK A01 T00691051  RH  042%=      5-min Rain = 0
KBWS 250422Z 09012KT 07/M05 A3016 RMK A01 T00691051  RH  042%=      5-min Rain = 0
KBWS 250423Z 09012KT 07/M05 A3016 RMK A01 T00691051  RH  042%=      5-min Rain = 0
KBWS 250424Z 09012KT 07/M05 A3016 RMK A01 T00691051  RH  042%=      5-min Rain = 0
KBWS 250425Z 09012KT 07/M05 A3016 RMK A01 T00681052  RH  042%=      5-min Rain = 0
KBWS 250426Z 09012KT 07/M05 A3016 RMK A01 T00681052  RH  042%=      5-min Rain = 0
KBWS 250427Z 09012KT 07/M05 A3016 RMK A01 T00681052  RH  042%=      5-min Rain = 0
KBWS 250428Z 09011KT 07/M05 A3016 RMK A01 T00681052  RH  042%=      5-min Rain = 0
KBWS 250429Z 09011KT 07/M05 A3017 RMK A01 T00681052  RH  042%=      5-min Rain = 0
KBWS 250430Z 09011KT 07/M05 A3017 RMK A01 T00671052  RH  042%=      5-min Rain = 0
KBWS 250431Z 09010KT 07/M05 A3017 RMK A01 T00671052  RH  042%=      5-min Rain = 0
KBWS 250432Z 09012KT 07/M05 A3017 RMK A01 T00661052  RH  043%=      5-min Rain = 0
KBWS 250433Z 09011KT 07/M05 A3017 RMK A01 T00661052  RH  043%=      5-min Rain = 0
KBWS 250434Z 09011KT 07/M05 A3017 RMK A01 T00661052  RH  043%=      5-min Rain = 0
KBWS 250435Z 09011KT 06/M05 A3017 RMK A01 T00641052  RH  043%=      5-min Rain = 0
KBWS 250436Z 09011KT 06/M05 A3017 RMK A01 T00641052  RH  043%=      5-min Rain = 0
KBWS 250437Z 09011KT 06/M05 A3017 RMK A01 T00641052  RH  043%=      5-min Rain = 0
KBWS 250438Z 09011KT 06/M05 A3017 RMK A01 T00641052  RH  043%=      5-min Rain = 0
KBWS 250439Z 09010KT 06/M05 A3017 RMK A01 T00631052  RH  043%=      5-min Rain = 0
KBWS 250440Z 08010KT 06/M05 A3017 RMK A01 T00621052  RH  044%=      5-min Rain = 0
KBWS 250441Z 09011KT 06/M05 A3017 RMK A01 T00621052  RH  044%=      5-min Rain = 0
KBWS 250442Z 09010KT 06/M05 A3017 RMK A01 T00621052  RH  044%=      5-min Rain = 0
KBWS 250443Z 09011KT 06/M05 A3017 RMK A01 T00611052  RH  044%=      5-min Rain = 0
KBWS 250444Z 09011KT 06/M05 A3017 RMK A01 T00611053  RH  044%=      5-min Rain = 0
KBWS 250445Z 09011KT 06/M05 A3017 RMK A01 T00611053  RH  044%=      5-min Rain = 0
KBWS 250446Z 09011KT 06/M05 A3017 RMK A01 T00611053  RH  044%=      5-min Rain = 0
KBWS 250447Z 09010KT 06/M05 A3017 RMK A01 T00611053  RH  044%=      5-min Rain = 0
KBWS 250448Z 09009KT 06/M05 A3017 RMK A01 T00601053  RH  044%=      5-min Rain = 0
KBWS 250449Z 09010KT 06/M05 A3017 RMK A01 T00601053  RH  044%=      5-min Rain = 0
KBWS 250450Z 09010KT 06/M05 A3017 RMK A01 T00591053  RH  044%=      5-min Rain = 0
KBWS 250451Z 09010KT 06/M05 A3017 RMK A01 T00601053  RH  044%=      5-min Rain = 0
KBWS 250452Z 09010KT 06/M05 A3017 RMK A01 T00611053  RH  044%=      5-min Rain = 0
KBWS 250453Z 09010KT 06/M05 A3017 RMK A01 T00601053  RH  044%=      5-min Rain = 0
KBWS 250454Z 09011KT 06/M05 A3017 RMK A01 T00601053  RH  044%=      5-min Rain = 0
KBWS 250455Z 09009KT 06/M05 A3017 RMK A01 T00591052  RH  044%=      5-min Rain = 0
KBWS 250456Z 09009KT 06/M05 A3017 RMK A01 T00601052  RH  044%=      5-min Rain = 0
KBWS 250457Z 09010KT 06/M05 A3017 RMK A01 T00591052  RH  045%=      5-min Rain = 0
KBWS 250458Z 09011KT 06/M05 A3017 RMK A01 T00591052  RH  045%=      5-min Rain = 0
KBWS 250459Z 09010KT 06/M05 A3017 RMK A01 T00591052  RH  045%=      5-min Rain = 0
KBWS 250500Z 09010KT 06/M05 A3017 RMK A01 T00591052  RH  045%=      5-min Rain = 0
KBWS 250501Z 09010KT 06/M05 A3017 RMK A01 T00591052  RH  045%=      5-min Rain = 0
KBWS 250502Z 09010KT 06/M05 A3017 RMK A01 T00591052  RH  045%=      5-min Rain = 0
KBWS 250503Z 09010KT 06/M05 A3017 RMK A01 T00591052  RH  045%=      5-min Rain = 0
KBWS 250504Z 09011KT 06/M05 A3017 RMK A01 T00581052  RH  045%=      5-min Rain = 0
KBWS 250505Z 09011KT 06/M05 A3017 RMK A01 T00581052  RH  045%=      5-min Rain = 0
KBWS 250506Z 09011KT 06/M05 A3017 RMK A01 T00591052  RH  045%=      5-min Rain = 0
KBWS 250507Z 09011KT 06/M05 A3017 RMK A01 T00591052  RH  045%=      5-min Rain = 0
KBWS 250508Z 09010KT 06/M05 A3017 RMK A01 T00601052  RH  045%=      5-min Rain = 0
KBWS 250509Z 09011KT 06/M05 A3017 RMK A01 T00591052  RH  045%=      5-min Rain = 0
KBWS 250510Z 09011KT 06/M05 A3017 RMK A01 T00581052  RH  045%=      5-min Rain = 0
KBWS 250511Z 09011KT 06/M05 A3017 RMK A01 T00591051  RH  045%=      5-min Rain = 0
KBWS 250512Z 09011KT 06/M05 A3017 RMK A01 T00591051  RH  045%=      5-min Rain = 0
KBWS 250513Z 09011KT 06/M05 A3017 RMK A01 T00581051  RH  045%=      5-min Rain = 0
KBWS 250514Z 09011KT 06/M05 A3017 RMK A01 T00581052  RH  045%=      5-min Rain = 0
KBWS 250515Z 09012KT 06/M05 A3017 RMK A01 T00581052  RH  045%=      5-min Rain = 0
KBWS 250516Z 09011KT 06/M05 A3017 RMK A01 T00581051  RH  045%=      5-min Rain = 0
KBWS 250517Z 09012KT 06/M05 A3017 RMK A01 T00581051  RH  045%=      5-min Rain = 0
KBWS 250518Z 09011KT 06/M05 A3017 RMK A01 T00581051  RH  045%=      5-min Rain = 0
KBWS 250519Z 09011KT 06/M05 A3017 RMK A01 T00581051  RH  045%=      5-min Rain = 0
KBWS 250520Z 09011KT 06/M05 A3017 RMK A01 T00571051  RH  046%=      5-min Rain = 0
KBWS 250521Z 09010KT 06/M05 A3017 RMK A01 T00571051  RH  046%=      5-min Rain = 0
KBWS 250522Z 09011KT 06/M05 A3017 RMK A01 T00561051  RH  046%=      5-min Rain = 0
KBWS 250523Z 10011KT 06/M05 A3017 RMK A01 T00551051  RH  046%=      5-min Rain = 0
KBWS 250524Z 10010KT 06/M05 A3017 RMK A01 T00551051  RH  046%=      5-min Rain = 0
KBWS 250525Z 10011KT 05/M05 A3017 RMK A01 T00541050  RH  047%=      5-min Rain = 0
KBWS 250526Z 10010KT 05/M05 A3017 RMK A01 T00541050  RH  047%=      5-min Rain = 0
KBWS 250527Z 09010KT 05/M05 A3017 RMK A01 T00531050  RH  047%=      5-min Rain = 0
KBWS 250528Z 09009KT 05/M05 A3017 RMK A01 T00521050  RH  048%=      5-min Rain = 0
KBWS 250529Z 09009KT 05/M05 A3017 RMK A01 T00521050  RH  048%=      5-min Rain = 0
KBWS 250530Z 09011KT 05/M05 A3017 RMK A01 T00521050  RH  048%=      5-min Rain = 0
KBWS 250531Z 09010KT 05/M05 A3017 RMK A01 T00531050  RH  047%=      5-min Rain = 0
KBWS 250532Z 10010KT 05/M05 A3017 RMK A01 T00531050  RH  047%=      5-min Rain = 0
KBWS 250533Z 10011KT 05/M05 A3017 RMK A01 T00521050  RH  048%=      5-min Rain = 0
KBWS 250534Z 10010KT 05/M05 A3017 RMK A01 T00511050  RH  048%=      5-min Rain = 0
KBWS 250535Z 09012KT 05/M05 A3017 RMK A01 T00511050  RH  048%=      5-min Rain = 0
KBWS 250536Z 09010KT 05/M05 A3017 RMK A01 T00511050  RH  048%=      5-min Rain = 0
KBWS 250537Z 09011KT 05/M05 A3017 RMK A01 T00501050  RH  048%=      5-min Rain = 0
KBWS 250538Z 09010KT 05/M05 A3017 RMK A01 T00501051  RH  048%=      5-min Rain = 0
KBWS 250539Z 09010KT 05/M05 A3017 RMK A01 T00511051  RH  048%=      5-min Rain = 0
KBWS 250540Z 09010KT 05/M05 A3017 RMK A01 T00511051  RH  048%=      5-min Rain = 0
KBWS 250541Z 09011KT 05/M05 A3017 RMK A01 T00511051  RH  048%=      5-min Rain = 0
KBWS 250542Z 09010KT 05/M05 A3017 RMK A01 T00521051  RH  047%=      5-min Rain = 0
KBWS 250543Z 09010KT 05/M05 A3017 RMK A01 T00521051  RH  047%=      5-min Rain = 0
KBWS 250544Z 09011KT 05/M05 A3017 RMK A01 T00511051  RH  047%=      5-min Rain = 0
KBWS 250545Z 09011KT 05/M05 A3017 RMK A01 T00511051  RH  048%=      5-min Rain = 0
KBWS 250546Z 09010KT 05/M05 A3017 RMK A01 T00501051  RH  048%=      5-min Rain = 0
KBWS 250547Z 09010KT 05/M05 A3017 RMK A01 T00501051  RH  048%=      5-min Rain = 0
KBWS 250548Z 09010KT 05/M05 A3017 RMK A01 T00491051  RH  048%=      5-min Rain = 0
KBWS 250549Z 09010KT 05/M05 A3017 RMK A01 T00491051  RH  048%=      5-min Rain = 0
KBWS 250550Z 08009KT 05/M05 A3017 RMK A01 T00491051  RH  048%=      5-min Rain = 0
KBWS 250551Z 08009KT 05/M05 A3017 RMK A01 T00481051  RH  049%=      5-min Rain = 0
KBWS 250552Z 08009KT 05/M05 A3016 RMK A01 T00471051  RH  049%=      5-min Rain = 0
KBWS 250553Z 08010KT 05/M05 A3016 RMK A01 T00461051  RH  049%=      5-min Rain = 0
KBWS 250554Z 09010KT 05/M05 A3016 RMK A01 T00461051  RH  049%=      5-min Rain = 0
KBWS 250555Z 08010KT 05/M05 A3016 RMK A01 T00451051  RH  050%=      5-min Rain = 0
KBWS 250556Z 08010KT 05/M05 A3016 RMK A01 T00451051  RH  050%=      5-min Rain = 0
KBWS 250557Z 08011KT 05/M05 A3016 RMK A01 T00451051  RH  050%=      5-min Rain = 0
KBWS 250558Z 08010KT 05/M05 A3016 RMK A01 T00451051  RH  050%=      5-min Rain = 0
KBWS 250559Z 08009KT 05/M05 A3016 RMK A01 T00451051  RH  050%=      5-min Rain = 0

Page generated in 0.1452 seconds.